Wetterdaten: aktuell Mittwoch, 19.02.2020 12:54
Datum Zeit Temp. A. Feuchte A. Luftdruck Regen Sonnenschein Regendauer ET UV Solar Taupunkt Windchill Windben Empfang
19.02.2020 12:54 6,9 C 77 % 1020,0 hPa 0,0 l/m 0 min 0 min 0,000 mm 1,7 UV-I 93 W/m 3,2 C 1,3 C 25,7 km/h (4 Bft) 98 %
19.02.2020 12:52 6,9 C 78 % 1020,0 hPa 0,0 l/m 0 min 0 min 0,000 mm 1,6 UV-I 113 W/m 3,3 C 6,9 C 17,7 km/h (3 Bft) 98 %
19.02.2020 12:50 7,0 C 78 % 1020,1 hPa 0,0 l/m 2 min 0 min 0,000 mm 1,7 UV-I 431 W/m 3,4 C 1,8 C 35,4 km/h (5 Bft) 98 %
19.02.2020 12:48 7,0 C 79 % 1020,0 hPa 0,0 l/m 2 min 0 min 0,000 mm 2,0 UV-I 555 W/m 3,6 C 4,8 C 24,1 km/h (4 Bft) 100 %
19.02.2020 12:46 7,0 C 80 % 1019,9 hPa 0,0 l/m 2 min 0 min 0,000 mm 1,9 UV-I 586 W/m 3,8 C 4,3 C 40,2 km/h (6 Bft) 100 %
19.02.2020 12:44 6,8 C 80 % 1020,0 hPa 0,0 l/m 2 min 0 min 0,000 mm 2,1 UV-I 535 W/m 3,6 C 3,9 C 25,7 km/h (4 Bft) 100 %
19.02.2020 12:42 6,7 C 80 % 1020,0 hPa 0,0 l/m 2 min 0 min 0,000 mm 2,0 UV-I 482 W/m 3,5 C 5,6 C 27,4 km/h (4 Bft) 100 %
19.02.2020 12:40 6,7 C 81 % 1020,0 hPa 0,0 l/m 2 min 0 min 0,000 mm 2,1 UV-I 512 W/m 3,7 C 4,3 C 25,7 km/h (4 Bft) 98 %
19.02.2020 12:38 6,6 C 81 % 1020,0 hPa 0,0 l/m 2 min 0 min 0,000 mm 2,1 UV-I 537 W/m 3,6 C 2,8 C 27,4 km/h (4 Bft) 100 %
19.02.2020 12:36 6,6 C 81 % 1020,0 hPa 0,0 l/m 2 min 0 min 0,000 mm 2,1 UV-I 479 W/m 3,6 C 3,8 C 16,1 km/h (3 Bft) 100 %
19.02.2020 12:34 6,5 C 81 % 1020,0 hPa 0,0 l/m 0 min 0 min 0,000 mm 1,9 UV-I 190 W/m 3,5 C 2,0 C 29,0 km/h (5 Bft) 100 %
19.02.2020 12:32 6,5 C 82 % 1020,0 hPa 0,0 l/m 2 min 0 min 0,000 mm 2,1 UV-I 504 W/m 3,7 C 3,6 C 20,9 km/h (4 Bft) 96 %
19.02.2020 12:30 6,4 C 82 % 1019,9 hPa 0,0 l/m 0 min 0 min 0,000 mm 2,1 UV-I 268 W/m 3,6 C 2,6 C 22,5 km/h (4 Bft) 100 %
19.02.2020 12:28 6,4 C 83 % 1019,9 hPa 0,0 l/m 0 min 0 min 0,000 mm 2,0 UV-I 245 W/m 3,7 C 2,8 C 27,4 km/h (4 Bft) 98 %
19.02.2020 12:26 6,3 C 83 % 1020,1 hPa 0,0 l/m 0 min 0 min 0,000 mm 1,9 UV-I 206 W/m 3,6 C 1,6 C 22,5 km/h (4 Bft) 94 %
19.02.2020 12:24 6,3 C 83 % 1020,0 hPa 0,0 l/m 1 min 0 min 0,000 mm 1,7 UV-I 477 W/m 3,6 C 2,8 C 20,9 km/h (4 Bft) 96 %
19.02.2020 12:23 6,2 C 83 % 1020,0 hPa 0,0 l/m 2 min 0 min 0,000 mm 2,0 UV-I 475 W/m 3,5 C -0,4 C 29,0 km/h (5 Bft) 99 %
19.02.2020 12:20 6,1 C 82 % 1019,9 hPa 0,0 l/m 0 min 0 min 0,000 mm 1,8 UV-I 271 W/m 3,3 C -3,3 C 35,4 km/h (5 Bft) 100 %
19.02.2020 12:18 6,1 C 82 % 1019,9 hPa 0,0 l/m 0 min 0 min 0,000 mm 1,6 UV-I 256 W/m 3,3 C 0,1 C 30,6 km/h (5 Bft) 94 %
19.02.2020 12:16 6,1 C 82 % 1019,9 hPa 0,0 l/m 0 min 0 min 0,000 mm 1,7 UV-I 256 W/m 3,3 C 0,5 C 27,4 km/h (4 Bft) 98 %
19.02.2020 12:14 6,1 C 82 % 1019,9 hPa 0,0 l/m 0 min 0 min 0,000 mm 1,7 UV-I 180 W/m 3,3 C -0,1 C 30,6 km/h (5 Bft) 96 %
19.02.2020 12:12 6,1 C 81 % 1019,8 hPa 0,0 l/m 0 min 0 min 0,000 mm 1,6 UV-I 206 W/m 3,1 C 0,5 C 30,6 km/h (5 Bft) 96 %
19.02.2020 12:10 6,2 C 81 % 1019,8 hPa 0,0 l/m 0 min 0 min 0,000 mm 1,5 UV-I 236 W/m 3,2 C -1,3 C 25,7 km/h (4 Bft) 100 %
19.02.2020 12:08 6,3 C 81 % 1019,8 hPa 0,0 l/m 0 min 0 min 0,000 mm 1,4 UV-I 175 W/m 3,3 C -0,5 C 33,8 km/h (5 Bft) 98 %
19.02.2020 12:06 6,3 C 82 % 1019,7 hPa 0,0 l/m 0 min 0 min 0,000 mm 1,4 UV-I 179 W/m 3,5 C 0,8 C 25,7 km/h (4 Bft) 98 %
19.02.2020 12:04 6,4 C 82 % 1019,7 hPa 0,0 l/m 0 min 0 min 0,000 mm 1,6 UV-I 241 W/m 3,6 C -0,4 C 32,2 km/h (5 Bft) 96 %
19.02.2020 12:03 6,4 C 82 % 1019,7 hPa 0,0 l/m 0 min 0 min 0,153 mm 1,7 UV-I 251 W/m 3,6 C 1,1 C 27,4 km/h (4 Bft) 96 %
19.02.2020 12:00 6,4 C 82 % 1019,7 hPa 0,0 l/m 2 min 0 min 0,000 mm 1,6 UV-I 465 W/m 3,6 C 2,6 C 30,6 km/h (5 Bft) 94 %
19.02.2020 11:58 6,4 C 82 % 1019,7 hPa 0,0 l/m 2 min 0 min 0,000 mm 1,8 UV-I 387 W/m 3,6 C -1,2 C 30,6 km/h (5 Bft) 98 %
19.02.2020 11:56 6,4 C 82 % 1019,6 hPa 0,0 l/m 0 min 0 min 0,000 mm 1,4 UV-I 182 W/m 3,6 C -0,7 C 27,4 km/h (4 Bft) 94 %
19.02.2020 11:54 6,6 C 83 % 1019,6 hPa 0,0 l/m 0 min 0 min 0,000 mm 1,6 UV-I 265 W/m 3,9 C 1,6 C 35,4 km/h (5 Bft) 98 %
19.02.2020 11:52 6,6 C 83 % 1019,6 hPa 0,0 l/m 2 min 0 min 0,000 mm 1,9 UV-I 500 W/m 3,9 C 3,3 C 27,4 km/h (4 Bft) 89 %
19.02.2020 11:50 6,6 C 83 % 1019,5 hPa 0,0 l/m 2 min 0 min 0,000 mm 2,0 UV-I 555 W/m 3,9 C 3,3 C 27,4 km/h (4 Bft) 96 %
19.02.2020 11:48 6,6 C 84 % 1019,5 hPa 0,0 l/m 0 min 0 min 0,000 mm 1,9 UV-I 287 W/m 4,1 C 3,3 C 20,9 km/h (4 Bft) 96 %
19.02.2020 11:46 6,4 C 84 % 1019,5 hPa 0,0 l/m 2 min 0 min 0,000 mm 1,8 UV-I 524 W/m 3,9 C 2,4 C 27,4 km/h (4 Bft) 90 %
19.02.2020 11:44 6,4 C 84 % 1019,5 hPa 0,0 l/m 2 min 0 min 0,000 mm 1,8 UV-I 524 W/m 3,9 C 5,2 C 25,7 km/h (4 Bft) 94 %
19.02.2020 11:42 6,2 C 84 % 1019,4 hPa 0,0 l/m 2 min 0 min 0,000 mm 1,7 UV-I 524 W/m 3,7 C 5,1 C 16,1 km/h (3 Bft) 89 %
19.02.2020 11:40 6,1 C 83 % 1019,4 hPa 0,0 l/m 2 min 0 min 0,000 mm 1,9 UV-I 487 W/m 3,4 C 3,3 C 20,9 km/h (4 Bft) 94 %
19.02.2020 11:38 6,1 C 83 % 1019,3 hPa 0,0 l/m 2 min 0 min 0,000 mm 1,8 UV-I 474 W/m 3,4 C -0,5 C 30,6 km/h (5 Bft) 94 %
19.02.2020 11:36 6,1 C 83 % 1019,2 hPa 0,0 l/m 2 min 0 min 0,000 mm 1,8 UV-I 355 W/m 3,4 C -1,1 C 27,4 km/h (4 Bft) 93 %
19.02.2020 11:34 6,0 C 83 % 1019,3 hPa 0,0 l/m 0 min 0 min 0,000 mm 1,4 UV-I 184 W/m 3,3 C -1,1 C 29,0 km/h (5 Bft) 94 %
19.02.2020 11:32 6,0 C 84 % 1019,3 hPa 0,0 l/m 0 min 0 min 0,000 mm 1,3 UV-I 170 W/m 3,5 C -0,0 C 30,6 km/h (5 Bft) 91 %
19.02.2020 11:30 5,9 C 84 % 1019,3 hPa 0,0 l/m 2 min 0 min 0,000 mm 1,5 UV-I 441 W/m 3,4 C 5,0 C 17,7 km/h (3 Bft) 91 %
19.02.2020 11:28 5,9 C 84 % 1019,2 hPa 0,0 l/m 2 min 0 min 0,000 mm 1,8 UV-I 460 W/m 3,4 C -0,2 C 29,0 km/h (5 Bft) 96 %
19.02.2020 11:26 5,8 C 83 % 1019,3 hPa 0,0 l/m 0 min 0 min 0,000 mm 1,8 UV-I 235 W/m 3,1 C -0,8 C 27,4 km/h (4 Bft) 96 %
19.02.2020 11:24 5,8 C 83 % 1019,2 hPa 0,0 l/m 0 min 0 min 0,000 mm 1,5 UV-I 213 W/m 3,1 C -0,1 C 29,0 km/h (5 Bft) 96 %
19.02.2020 11:22 5,8 C 83 % 1019,2 hPa 0,0 l/m 0 min 0 min 0,000 mm 1,5 UV-I 185 W/m 3,1 C 4,4 C 16,1 km/h (3 Bft) 96 %
19.02.2020 11:20 5,9 C 83 % 1019,2 hPa 0,0 l/m 0 min 0 min 0,000 mm 1,7 UV-I 216 W/m 3,2 C -0,6 C 27,4 km/h (4 Bft) 96 %
19.02.2020 11:18 5,9 C 84 % 1019,1 hPa 0,0 l/m 2 min 0 min 0,000 mm 1,5 UV-I 350 W/m 3,4 C -1,4 C 32,2 km/h (5 Bft) 98 %
19.02.2020 11:16 5,9 C 84 % 1019,1 hPa 0,0 l/m 2 min 0 min 0,000 mm 1,6 UV-I 533 W/m 3,4 C 1,1 C 27,4 km/h (4 Bft) 96 %
19.02.2020 11:14 5,8 C 84 % 1019,0 hPa 0,0 l/m 0 min 0 min 0,000 mm 1,6 UV-I 235 W/m 3,3 C 0,1 C 24,1 km/h (4 Bft) 98 %
19.02.2020 11:12 5,9 C 84 % 1019,1 hPa 0,0 l/m 0 min 0 min 0,000 mm 1,6 UV-I 195 W/m 3,4 C -1,2 C 32,2 km/h (5 Bft) 98 %
19.02.2020 11:10 5,9 C 85 % 1019,1 hPa 0,0 l/m 0 min 0 min 0,000 mm 1,5 UV-I 243 W/m 3,6 C 2,2 C 29,0 km/h (5 Bft) 98 %
19.02.2020 11:08 5,9 C 85 % 1019,0 hPa 0,0 l/m 0 min 0 min 0,000 mm 1,5 UV-I 264 W/m 3,6 C 1,6 C 27,4 km/h (4 Bft) 98 %
19.02.2020 11:06 5,9 C 85 % 1019,0 hPa 0,0 l/m 0 min 0 min 0,000 mm 1,4 UV-I 264 W/m 3,6 C 1,6 C 24,1 km/h (4 Bft) 96 %
19.02.2020 11:04 5,8 C 85 % 1019,0 hPa 0,0 l/m 0 min 0 min 0,000 mm 1,4 UV-I 264 W/m 3,5 C -0,5 C 27,4 km/h (4 Bft) 100 %
19.02.2020 11:03 5,8 C 86 % 1019,0 hPa 0,0 l/m 2 min 0 min 0,000 mm 1,5 UV-I 328 W/m 3,6 C 4,0 C 22,5 km/h (4 Bft) 96 %
19.02.2020 11:00 5,8 C 86 % 1018,9 hPa 0,0 l/m 0 min 0 min 0,127 mm 1,6 UV-I 243 W/m 3,6 C 3,7 C 17,7 km/h (3 Bft) 98 %
19.02.2020 10:58 5,7 C 87 % 1018,9 hPa 0,0 l/m 0 min 0 min 0,000 mm 1,4 UV-I 203 W/m 3,7 C 0,4 C 20,9 km/h (4 Bft) 96 %
19.02.2020 10:56 5,6 C 87 % 1018,9 hPa 0,0 l/m 2 min 0 min 0,000 mm 1,6 UV-I 400 W/m 3,6 C -1,5 C 29,0 km/h (5 Bft) 100 %
19.02.2020 10:54 5,6 C 87 % 1018,9 hPa 0,0 l/m 2 min 0 min 0,000 mm 1,5 UV-I 496 W/m 3,6 C 5,6 C 25,7 km/h (4 Bft) 98 %
19.02.2020 10:52 5,4 C 87 % 1018,8 hPa 0,0 l/m 0 min 0 min 0,000 mm 1,4 UV-I 255 W/m 3,4 C 3,6 C 20,9 km/h (4 Bft) 100 %
19.02.2020 10:50 5,4 C 87 % 1018,8 hPa 0,0 l/m 0 min 0 min 0,000 mm 1,2 UV-I 205 W/m 3,4 C -0,4 C 25,7 km/h (4 Bft) 96 %
19.02.2020 10:48 5,4 C 87 % 1018,8 hPa 0,0 l/m 0 min 0 min 0,000 mm 1,3 UV-I 186 W/m 3,4 C 1,6 C 24,1 km/h (4 Bft) 100 %
19.02.2020 10:46 5,4 C 87 % 1018,7 hPa 0,0 l/m 0 min 0 min 0,000 mm 1,3 UV-I 182 W/m 3,4 C 1,5 C 32,2 km/h (5 Bft) 100 %
19.02.2020 10:44 5,4 C 88 % 1018,8 hPa 0,0 l/m 0 min 0 min 0,000 mm 1,2 UV-I 193 W/m 3,6 C 5,4 C 14,5 km/h (3 Bft) 98 %
19.02.2020 10:42 5,4 C 88 % 1018,8 hPa 0,0 l/m 0 min 0 min 0,000 mm 1,2 UV-I 198 W/m 3,6 C 5,4 C 14,5 km/h (3 Bft) 100 %
19.02.2020 10:40 5,4 C 88 % 1018,7 hPa 0,0 l/m 0 min 0 min 0,000 mm 1,2 UV-I 169 W/m 3,6 C 0,9 C 32,2 km/h (5 Bft) 100 %
19.02.2020 10:38 5,4 C 88 % 1018,6 hPa 0,0 l/m 2 min 0 min 0,000 mm 1,2 UV-I 451 W/m 3,6 C 2,5 C 27,4 km/h (4 Bft) 100 %
19.02.2020 10:36 5,4 C 88 % 1018,6 hPa 0,0 l/m 2 min 0 min 0,000 mm 1,3 UV-I 446 W/m 3,6 C 0,9 C 25,7 km/h (4 Bft) 96 %
19.02.2020 10:34 5,3 C 89 % 1018,6 hPa 0,0 l/m 2 min 0 min 0,000 mm 1,3 UV-I 419 W/m 3,6 C 3,8 C 27,4 km/h (4 Bft) 98 %
19.02.2020 10:32 5,3 C 89 % 1018,6 hPa 0,0 l/m 2 min 0 min 0,000 mm 1,3 UV-I 391 W/m 3,6 C 1,9 C 25,7 km/h (4 Bft) 100 %
19.02.2020 10:30 5,3 C 89 % 1018,5 hPa 0,0 l/m 0 min 0 min 0,000 mm 1,3 UV-I 200 W/m 3,6 C 5,3 C 12,9 km/h (3 Bft) 98 %
19.02.2020 10:28 5,3 C 89 % 1018,5 hPa 0,0 l/m 2 min 0 min 0,000 mm 1,2 UV-I 247 W/m 3,6 C -1,5 C 27,4 km/h (4 Bft) 98 %
19.02.2020 10:26 5,3 C 90 % 1018,5 hPa 0,0 l/m 2 min 0 min 0,000 mm 1,2 UV-I 246 W/m 3,8 C 3,1 C 27,4 km/h (4 Bft) 98 %
19.02.2020 10:24 5,2 C 90 % 1018,5 hPa 0,0 l/m 2 min 0 min 0,000 mm 1,2 UV-I 282 W/m 3,7 C 2,7 C 19,3 km/h (3 Bft) 94 %
19.02.2020 10:22 5,2 C 90 % 1018,4 hPa 0,0 l/m 2 min 0 min 0,000 mm 1,2 UV-I 313 W/m 3,7 C -0,4 C 32,2 km/h (5 Bft) 96 %
19.02.2020 10:20 5,1 C 90 % 1018,4 hPa 0,0 l/m 2 min 0 min 0,000 mm 1,2 UV-I 400 W/m 3,6 C 2,0 C 22,5 km/h (4 Bft) 96 %
19.02.2020 10:18 5,1 C 90 % 1018,4 hPa 0,0 l/m 2 min 0 min 0,000 mm 1,2 UV-I 449 W/m 3,6 C -0,3 C 22,5 km/h (4 Bft) 91 %
19.02.2020 10:16 5,0 C 90 % 1018,4 hPa 0,0 l/m 2 min 0 min 0,000 mm 1,3 UV-I 301 W/m 3,5 C 4,2 C 29,0 km/h (5 Bft) 98 %
19.02.2020 10:14 5,1 C 90 % 1018,3 hPa 0,0 l/m 0 min 0 min 0,000 mm 1,1 UV-I 130 W/m 3,6 C 0,2 C 33,8 km/h (5 Bft) 96 %
19.02.2020 10:12 4,9 C 91 % 1018,3 hPa 0,0 l/m 0 min 0 min 0,000 mm 1,1 UV-I 123 W/m 3,6 C 2,0 C 20,9 km/h (4 Bft) 96 %
19.02.2020 10:10 4,9 C 91 % 1018,3 hPa 0,0 l/m 0 min 0 min 0,000 mm 1,1 UV-I 170 W/m 3,6 C 1,6 C 27,4 km/h (4 Bft) 94 %
19.02.2020 10:08 4,8 C 91 % 1018,3 hPa 0,0 l/m 2 min 0 min 0,000 mm 1,2 UV-I 374 W/m 3,5 C 4,8 C 17,7 km/h (3 Bft) 94 %
19.02.2020 10:06 4,8 C 90 % 1018,2 hPa 0,0 l/m 2 min 0 min 0,000 mm 1,2 UV-I 366 W/m 3,3 C 4,8 C 19,3 km/h (3 Bft) 93 %
19.02.2020 10:04 4,7 C 90 % 1018,3 hPa 0,0 l/m 2 min 0 min 0,000 mm 1,2 UV-I 264 W/m 3,2 C -0,4 C 25,7 km/h (4 Bft) 94 %
19.02.2020 10:00 4,7 C 90 % 1018,1 hPa 0,0 l/m 0 min 0 min 0,076 mm 1,2 UV-I 81 W/m 3,2 C -2,2 C 33,8 km/h (5 Bft) 94 %
19.02.2020 09:58 4,7 C 91 % 1018,2 hPa 0,0 l/m 2 min 0 min 0,000 mm 1,1 UV-I 248 W/m 3,4 C -1,0 C 25,7 km/h (4 Bft) 98 %
19.02.2020 09:56 4,7 C 91 % 1018,1 hPa 0,0 l/m 2 min 0 min 0,000 mm 1,1 UV-I 212 W/m 3,4 C 0,2 C 25,7 km/h (4 Bft) 96 %
19.02.2020 09:54 4,7 C 91 % 1018,0 hPa 0,0 l/m 0 min 0 min 0,000 mm 1,0 UV-I 166 W/m 3,4 C 1,6 C 27,4 km/h (4 Bft) 98 %
19.02.2020 09:52 4,7 C 91 % 1017,9 hPa 0,0 l/m 2 min 0 min 0,000 mm 1,1 UV-I 313 W/m 3,4 C 4,7 C 19,3 km/h (3 Bft) 93 %
19.02.2020 09:50 4,7 C 91 % 1017,9 hPa 0,0 l/m 2 min 0 min 0,000 mm 1,1 UV-I 275 W/m 3,4 C 2,0 C 35,4 km/h (5 Bft) 98 %
19.02.2020 09:48 4,6 C 91 % 1017,9 hPa 0,0 l/m 0 min 0 min 0,000 mm 1,0 UV-I 147 W/m 3,3 C -2,3 C 27,4 km/h (4 Bft) 96 %
19.02.2020 09:46 4,6 C 92 % 1018,0 hPa 0,0 l/m 2 min 0 min 0,000 mm 1,0 UV-I 255 W/m 3,4 C 1,3 C 25,7 km/h (4 Bft) 96 %
19.02.2020 09:44 4,6 C 92 % 1017,9 hPa 0,0 l/m 2 min 0 min 0,000 mm 1,0 UV-I 276 W/m 3,4 C -1,5 C 25,7 km/h (4 Bft) 96 %
19.02.2020 09:42 4,5 C 92 % 1017,8 hPa 0,0 l/m 2 min 0 min 0,000 mm 1,0 UV-I 273 W/m 3,3 C 0,3 C 25,7 km/h (4 Bft) 98 %
19.02.2020 09:40 4,4 C 92 % 1017,8 hPa 0,0 l/m 2 min 0 min 0,000 mm 1,0 UV-I 293 W/m 3,2 C -2,9 C 29,0 km/h (5 Bft) 100 %
19.02.2020 09:38 4,4 C 92 % 1017,7 hPa 0,0 l/m 2 min 0 min 0,000 mm 1,0 UV-I 276 W/m 3,2 C -0,8 C 25,7 km/h (4 Bft) 100 %
19.02.2020 09:36 4,4 C 92 % 1017,7 hPa 0,0 l/m 2 min 0 min 0,000 mm 1,0 UV-I 254 W/m 3,2 C -1,9 C 25,7 km/h (4 Bft) 100 %
19.02.2020 09:34 4,3 C 92 % 1017,7 hPa 0,0 l/m 2 min 0 min 0,000 mm 0,9 UV-I 246 W/m 3,1 C -0,8 C 20,9 km/h (4 Bft) 98 %
19.02.2020 09:32 4,3 C 92 % 1017,7 hPa 0,0 l/m 2 min 0 min 0,000 mm 0,9 UV-I 228 W/m 3,1 C -3,0 C 33,8 km/h (5 Bft) 100 %
19.02.2020 09:30 4,3 C 92 % 1017,7 hPa 0,0 l/m 2 min 0 min 0,000 mm 0,9 UV-I 213 W/m 3,1 C -0,1 C 20,9 km/h (4 Bft) 100 %
19.02.2020 09:28 4,2 C 92 % 1017,7 hPa 0,0 l/m 0 min 0 min 0,000 mm 0,9 UV-I 130 W/m 3,0 C 1,3 C 24,1 km/h (4 Bft) 100 %
19.02.2020 09:26 4,2 C 92 % 1017,7 hPa 0,0 l/m 2 min 2 min 0,000 mm 0,9 UV-I 248 W/m 3,0 C -3,5 C 32,2 km/h (5 Bft) 100 %
19.02.2020 09:24 4,2 C 92 % 1017,7 hPa 0,0 l/m 2 min 0 min 0,000 mm 0,9 UV-I 234 W/m 3,0 C 1,5 C 24,1 km/h (4 Bft) 98 %
19.02.2020 09:22 4,2 C 92 % 1017,6 hPa 0,0 l/m 2 min 2 min 0,000 mm 0,9 UV-I 219 W/m 3,0 C 3,4 C 16,1 km/h (3 Bft) 100 %
19.02.2020 09:20 4,1 C 92 % 1017,5 hPa 0,0 l/m 2 min 2 min 0,000 mm 0,9 UV-I 207 W/m 2,9 C -1,9 C 32,2 km/h (5 Bft) 100 %
19.02.2020 09:18 4,1 C 92 % 1017,5 hPa 0,0 l/m 2 min 2 min 0,000 mm 0,8 UV-I 198 W/m 2,9 C -0,0 C 24,1 km/h (4 Bft) 100 %
19.02.2020 09:16 4,1 C 92 % 1017,5 hPa 0,0 l/m 0 min 2 min 0,000 mm 0,8 UV-I 76 W/m 2,9 C -0,1 C 24,1 km/h (4 Bft) 98 %
19.02.2020 09:14 4,1 C 92 % 1017,5 hPa 0,0 l/m 0 min 2 min 0,000 mm 0,8 UV-I 89 W/m 2,9 C -1,0 C 27,4 km/h (4 Bft) 100 %
19.02.2020 09:12 4,2 C 92 % 1017,5 hPa 0,0 l/m 0 min 2 min 0,000 mm 0,8 UV-I 100 W/m 3,0 C -0,7 C 29,0 km/h (5 Bft) 100 %
19.02.2020 09:10 4,2 C 92 % 1017,5 hPa 0,0 l/m 0 min 2 min 0,000 mm 0,7 UV-I 79 W/m 3,0 C -2,6 C 29,0 km/h (5 Bft) 98 %
19.02.2020 09:08 4,2 C 93 % 1017,5 hPa 0,0 l/m 0 min 2 min 0,000 mm 0,7 UV-I 68 W/m 3,2 C 1,3 C 29,0 km/h (5 Bft) 100 %
19.02.2020 09:06 4,2 C 93 % 1017,5 hPa 0,0 l/m 0 min 2 min 0,000 mm 0,6 UV-I 57 W/m 3,2 C -1,5 C 24,1 km/h (4 Bft) 96 %
19.02.2020 09:04 4,2 C 93 % 1017,4 hPa 0,0 l/m 0 min 2 min 0,000 mm 0,7 UV-I 114 W/m 3,2 C -1,8 C 25,7 km/h (4 Bft) 96 %
19.02.2020 09:00 4,2 C 93 % 1017,4 hPa 0,0 l/m 0 min 2 min 0,051 mm 0,7 UV-I 83 W/m 3,2 C -1,5 C 27,4 km/h (4 Bft) 98 %
19.02.2020 08:58 4,1 C 93 % 1017,3 hPa 0,0 l/m 0 min 0 min 0,000 mm 0,7 UV-I 74 W/m 3,1 C -1,2 C 20,9 km/h (4 Bft) 98 %
19.02.2020 08:56 4,1 C 93 % 1017,3 hPa 0,0 l/m 2 min 2 min 0,000 mm 0,6 UV-I 132 W/m 3,1 C -3,8 C 30,6 km/h (5 Bft) 96 %
19.02.2020 08:54 4,0 C 93 % 1017,3 hPa 0,0 l/m 2 min 2 min 0,000 mm 0,7 UV-I 214 W/m 3,0 C -2,0 C 25,7 km/h (4 Bft) 98 %
19.02.2020 08:52 3,9 C 93 % 1017,3 hPa 0,0 l/m 2 min 2 min 0,000 mm 0,7 UV-I 180 W/m 2,9 C -2,5 C 29,0 km/h (5 Bft) 98 %
19.02.2020 08:50 3,9 C 93 % 1017,3 hPa 0,0 l/m 2 min 2 min 0,000 mm 0,7 UV-I 139 W/m 2,9 C -2,5 C 27,4 km/h (4 Bft) 96 %
19.02.2020 08:48 3,9 C 93 % 1017,1 hPa 0,0 l/m 2 min 2 min 0,000 mm 0,7 UV-I 132 W/m 2,9 C -2,4 C 25,7 km/h (4 Bft) 96 %
19.02.2020 08:46 3,8 C 93 % 1017,2 hPa 0,0 l/m 2 min 2 min 0,000 mm 0,7 UV-I 146 W/m 2,8 C -3,3 C 27,4 km/h (4 Bft) 98 %
19.02.2020 08:44 3,8 C 93 % 1017,2 hPa 0,0 l/m 2 min 2 min 0,000 mm 0,7 UV-I 117 W/m 2,8 C -2,1 C 24,1 km/h (4 Bft) 98 %
19.02.2020 08:42 3,8 C 92 % 1017,1 hPa 0,0 l/m 2 min 2 min 0,000 mm 0,7 UV-I 96 W/m 2,6 C -1,0 C 22,5 km/h (4 Bft) 98 %
19.02.2020 08:40 3,8 C 92 % 1017,1 hPa 0,0 l/m 0 min 2 min 0,000 mm 0,5 UV-I 49 W/m 2,6 C -2,4 C 25,7 km/h (4 Bft) 100 %
19.02.2020 08:38 3,8 C 92 % 1017,0 hPa 0,0 l/m 0 min 2 min 0,000 mm 0,0 UV-I 38 W/m 2,6 C -2,9 C 27,4 km/h (4 Bft) 100 %
19.02.2020 08:36 3,9 C 92 % 1017,0 hPa 0,0 l/m 0 min 2 min 0,000 mm 0,0 UV-I 33 W/m 2,7 C -4,5 C 33,8 km/h (5 Bft) 100 %
19.02.2020 08:34 3,9 C 92 % 1017,0 hPa 0,0 l/m 0 min 2 min 0,000 mm 0,0 UV-I 27 W/m 2,7 C -4,1 C 30,6 km/h (5 Bft) 100 %
19.02.2020 08:32 3,9 C 92 % 1017,0 hPa 0,0 l/m 0 min 2 min 0,000 mm 0,0 UV-I 25 W/m 2,7 C -3,0 C 24,1 km/h (4 Bft) 98 %
19.02.2020 08:30 3,9 C 92 % 1016,9 hPa 0,0 l/m 0 min 2 min 0,000 mm 0,0 UV-I 23 W/m 2,7 C -1,7 C 25,7 km/h (4 Bft) 98 %
19.02.2020 08:28 4,0 C 92 % 1017,0 hPa 0,0 l/m 0 min 2 min 0,000 mm 0,0 UV-I 19 W/m 2,8 C -2,4 C 24,1 km/h (4 Bft) 100 %
19.02.2020 08:26 4,0 C 93 % 1016,8 hPa 0,0 l/m 0 min 2 min 0,000 mm 0,0 UV-I 23 W/m 3,0 C -1,1 C 30,6 km/h (5 Bft) 98 %
19.02.2020 08:24 4,0 C 93 % 1016,8 hPa 0,0 l/m 0 min 2 min 0,000 mm 0,3 UV-I 56 W/m 3,0 C -3,1 C 30,6 km/h (5 Bft) 98 %
19.02.2020 08:22 4,0 C 93 % 1016,6 hPa 0,0 l/m 2 min 0 min 0,000 mm 0,6 UV-I 74 W/m 3,0 C 0,5 C 25,7 km/h (4 Bft) 100 %
19.02.2020 08:20 4,0 C 93 % 1016,6 hPa 0,0 l/m 0 min 0 min 0,000 mm 0,4 UV-I 47 W/m 3,0 C -3,1 C 30,6 km/h (5 Bft) 100 %
19.02.2020 08:18 3,9 C 93 % 1016,5 hPa 0,0 l/m 0 min 0 min 0,000 mm 0,0 UV-I 36 W/m 2,9 C -2,1 C 25,7 km/h (4 Bft) 98 %
19.02.2020 08:16 3,9 C 93 % 1016,5 hPa 0,0 l/m 0 min 0 min 0,000 mm 0,2 UV-I 38 W/m 2,9 C -2,4 C 22,5 km/h (4 Bft) 96 %
19.02.2020 08:14 3,9 C 93 % 1016,5 hPa 0,0 l/m 0 min 0 min 0,000 mm 0,1 UV-I 40 W/m 2,9 C -3,1 C 24,1 km/h (4 Bft) 98 %
19.02.2020 08:12 3,9 C 93 % 1016,5 hPa 0,0 l/m 0 min 0 min 0,000 mm 0,0 UV-I 28 W/m 2,9 C -3,7 C 33,8 km/h (5 Bft) 96 %
19.02.2020 08:10 3,9 C 92 % 1016,5 hPa 0,0 l/m 0 min 0 min 0,000 mm 0,0 UV-I 22 W/m 2,7 C -1,9 C 29,0 km/h (5 Bft) 96 %
19.02.2020 08:08 3,9 C 93 % 1016,4 hPa 0,0 l/m 0 min 0 min 0,000 mm 0,0 UV-I 17 W/m 2,9 C -3,9 C 30,6 km/h (5 Bft) 94 %
19.02.2020 08:06 3,9 C 93 % 1016,3 hPa 0,0 l/m 0 min 0 min 0,000 mm 0,0 UV-I 15 W/m 2,9 C -3,3 C 27,4 km/h (4 Bft) 96 %
19.02.2020 08:04 3,9 C 93 % 1016,3 hPa 0,0 l/m 0 min 0 min 0,025 mm 0,0 UV-I 12 W/m 2,9 C -2,6 C 29,0 km/h (5 Bft) 94 %
19.02.2020 08:00 3,8 C 93 % 1016,2 hPa 0,0 l/m 0 min 0 min 0,000 mm 0,0 UV-I 11 W/m 2,8 C -2,5 C 29,0 km/h (5 Bft) 94 %
19.02.2020 07:58 3,8 C 93 % 1016,1 hPa 0,0 l/m 0 min 0 min 0,000 mm 0,0 UV-I 10 W/m 2,8 C -1,3 C 17,7 km/h (3 Bft) 96 %
19.02.2020 07:56 3,8 C 93 % 1016,0 hPa 0,0 l/m 0 min 0 min 0,000 mm 0,0 UV-I 11 W/m 2,8 C -4,0 C 27,4 km/h (4 Bft) 96 %
19.02.2020 07:54 3,8 C 93 % 1016,0 hPa 0,0 l/m 0 min 0 min 0,000 mm 0,0 UV-I 11 W/m 2,8 C -4,4 C 33,8 km/h (5 Bft) 94 %
19.02.2020 07:52 3,8 C 93 % 1016,0 hPa 0,0 l/m 0 min 0 min 0,000 mm 0,0 UV-I 10 W/m 2,8 C -4,3 C 40,2 km/h (6 Bft) 96 %
19.02.2020 07:50 3,8 C 93 % 1015,8 hPa 0,0 l/m 0 min 0 min 0,000 mm 0,0 UV-I 9 W/m 2,8 C -1,8 C 29,0 km/h (5 Bft) 96 %
19.02.2020 07:48 3,8 C 93 % 1015,8 hPa 0,0 l/m 0 min 0 min 0,000 mm 0,0 UV-I 9 W/m 2,8 C -4,6 C 32,2 km/h (5 Bft) 94 %
19.02.2020 07:46 3,8 C 93 % 1015,8 hPa 0,0 l/m 0 min 0 min 0,000 mm 0,0 UV-I 8 W/m 2,8 C -4,6 C 29,0 km/h (5 Bft) 94 %
19.02.2020 07:44 3,8 C 93 % 1015,7 hPa 0,0 l/m 0 min 0 min 0,000 mm 0,0 UV-I 7 W/m 2,8 C -2,9 C 27,4 km/h (4 Bft) 96 %
19.02.2020 07:42 3,8 C 93 % 1015,8 hPa 0,0 l/m 0 min 0 min 0,000 mm 0,0 UV-I 7 W/m 2,8 C -6,4 C 40,2 km/h (6 Bft) 100 %
19.02.2020 07:40 3,8 C 94 % 1015,7 hPa 0,0 l/m 0 min 0 min 0,000 mm 0,0 UV-I 6 W/m 2,9 C -3,1 C 30,6 km/h (5 Bft) 96 %
19.02.2020 07:38 3,8 C 93 % 1015,6 hPa 0,0 l/m 0 min 0 min 0,000 mm 0,0 UV-I 4 W/m 2,8 C -5,0 C 33,8 km/h (5 Bft) 96 %
19.02.2020 07:36 3,8 C 94 % 1015,6 hPa 0,0 l/m 0 min 0 min 0,000 mm 0,0 UV-I 3 W/m 2,9 C -4,8 C 35,4 km/h (5 Bft) 96 %
19.02.2020 07:34 3,8 C 94 % 1015,5 hPa 0,0 l/m 0 min 0 min 0,000 mm 0,0 UV-I 1 W/m 2,9 C -5,7 C 40,2 km/h (6 Bft) 96 %
19.02.2020 07:32 3,8 C 94 % 1015,5 hPa 0,0 l/m 0 min 0 min 0,000 mm 0,0 UV-I 0 W/m 2,9 C -4,7 C 41,8 km/h (6 Bft) 91 %
19.02.2020 07:30 3,8 C 94 % 1015,5 hPa 0,0 l/m 0 min 0 min 0,000 mm 0,0 UV-I 0 W/m 2,9 C -3,8 C 27,4 km/h (4 Bft) 96 %
19.02.2020 07:28 3,8 C 94 % 1015,5 hPa 0,0 l/m 0 min 0 min 0,000 mm 0,0 UV-I 0 W/m 2,9 C -5,6 C 33,8 km/h (5 Bft) 96 %
19.02.2020 07:26 3,8 C 94 % 1015,4 hPa 0,0 l/m 0 min 0 min 0,000 mm 0,0 UV-I 0 W/m 2,9 C -5,0 C 33,8 km/h (5 Bft) 94 %
19.02.2020 07:24 3,8 C 94 % 1015,4 hPa 0,0 l/m 0 min 0 min 0,000 mm 0,0 UV-I 0 W/m 2,9 C -6,4 C 35,4 km/h (5 Bft) 98 %
19.02.2020 07:22 3,8 C 94 % 1015,3 hPa 0,0 l/m 0 min 0 min 0,000 mm 0,0 UV-I 0 W/m 2,9 C -3,9 C 32,2 km/h (5 Bft) 96 %
19.02.2020 07:20 3,8 C 94 % 1015,3 hPa 0,0 l/m 0 min 0 min 0,000 mm 0,0 UV-I 0 W/m 2,9 C -3,5 C 27,4 km/h (4 Bft) 96 %
19.02.2020 07:18 3,8 C 94 % 1015,3 hPa 0,0 l/m 0 min 0 min 0,000 mm 0,0 UV-I 0 W/m 2,9 C -4,8 C 38,6 km/h (5 Bft) 96 %
19.02.2020 07:16 3,9 C 94 % 1015,2 hPa 0,0 l/m 0 min 0 min 0,000 mm 0,0 UV-I 0 W/m 3,0 C -3,6 C 29,0 km/h (5 Bft) 98 %
19.02.2020 07:14 3,9 C 94 % 1015,1 hPa 0,0 l/m 0 min 0 min 0,000 mm 0,0 UV-I 0 W/m 3,0 C -5,0 C 30,6 km/h (5 Bft) 96 %
19.02.2020 07:12 3,9 C 94 % 1015,1 hPa 0,0 l/m 0 min 0 min 0,000 mm 0,0 UV-I 0 W/m 3,0 C -5,7 C 32,2 km/h (5 Bft) 98 %
19.02.2020 07:10 3,9 C 94 % 1015,1 hPa 0,0 l/m 0 min 0 min 0,000 mm 0,0 UV-I 0 W/m 3,0 C -2,2 C 29,0 km/h (5 Bft) 96 %
19.02.2020 07:08 3,9 C 94 % 1015,0 hPa 0,0 l/m 0 min 0 min 0,000 mm 0,0 UV-I 0 W/m 3,0 C -5,0 C 29,0 km/h (5 Bft) 96 %
19.02.2020 07:06 3,9 C 94 % 1015,0 hPa 0,0 l/m 0 min 0 min 0,000 mm 0,0 UV-I 0 W/m 3,0 C -5,6 C 35,4 km/h (5 Bft) 98 %
19.02.2020 07:04 3,9 C 94 % 1015,0 hPa 0,0 l/m 0 min 0 min 0,000 mm 0,0 UV-I 0 W/m 3,0 C -3,8 C 32,2 km/h (5 Bft) 98 %
19.02.2020 07:00 3,9 C 94 % 1014,8 hPa 0,0 l/m 0 min 0 min 0,025 mm 0,0 UV-I 0 W/m 3,0 C -4,5 C 30,6 km/h (5 Bft) 96 %
19.02.2020 06:58 3,9 C 94 % 1014,7 hPa 0,0 l/m 0 min 0 min 0,000 mm 0,0 UV-I 0 W/m 3,0 C -2,3 C 20,9 km/h (4 Bft) 96 %
19.02.2020 06:56 3,9 C 94 % 1014,7 hPa 0,0 l/m 0 min 0 min 0,000 mm 0,0 UV-I 0 W/m 3,0 C -4,8 C 37,0 km/h (5 Bft) 96 %
19.02.2020 06:54 3,9 C 94 % 1014,6 hPa 0,0 l/m 0 min 0 min 0,000 mm 0,0 UV-I 0 W/m 3,0 C -4,7 C 32,2 km/h (5 Bft) 98 %
19.02.2020 06:52 3,9 C 94 % 1014,6 hPa 0,0 l/m 0 min 0 min 0,000 mm 0,0 UV-I 0 W/m 3,0 C -4,4 C 32,2 km/h (5 Bft) 98 %
19.02.2020 06:50 3,9 C 94 % 1014,7 hPa 0,0 l/m 0 min 0 min 0,000 mm 0,0 UV-I 0 W/m 3,0 C -2,0 C 22,5 km/h (4 Bft) 98 %
19.02.2020 06:48 3,9 C 94 % 1014,5 hPa 0,0 l/m 0 min 0 min 0,000 mm 0,0 UV-I 0 W/m 3,0 C -2,1 C 22,5 km/h (4 Bft) 100 %
19.02.2020 06:46 3,9 C 94 % 1014,5 hPa 0,2 l/m 0 min 0 min 0,000 mm 0,0 UV-I 0 W/m 3,0 C -3,7 C 29,0 km/h (5 Bft) 100 %
19.02.2020 06:44 3,9 C 94 % 1014,5 hPa 0,0 l/m 0 min 0 min 0,000 mm 0,0 UV-I 0 W/m 3,0 C -4,7 C 33,8 km/h (5 Bft) 100 %
19.02.2020 06:42 3,9 C 94 % 1014,4 hPa 0,0 l/m 0 min 0 min 0,000 mm 0,0 UV-I 0 W/m 3,0 C -1,5 C 27,4 km/h (4 Bft) 98 %
19.02.2020 06:40 3,9 C 94 % 1014,4 hPa 0,0 l/m 0 min 0 min 0,000 mm 0,0 UV-I 0 W/m 3,0 C -3,8 C 30,6 km/h (5 Bft) 100 %
19.02.2020 06:38 3,9 C 94 % 1014,5 hPa 0,0 l/m 0 min 0 min 0,000 mm 0,0 UV-I 0 W/m 3,0 C -0,9 C 22,5 km/h (4 Bft) 98 %
19.02.2020 06:36 3,9 C 94 % 1014,5 hPa 0,0 l/m 0 min 0 min 0,000 mm 0,0 UV-I 0 W/m 3,0 C -3,6 C 32,2 km/h (5 Bft) 98 %
19.02.2020 06:34 3,9 C 94 % 1014,3 hPa 0,0 l/m 0 min 0 min 0,000 mm 0,0 UV-I 0 W/m 3,0 C -1,5 C 20,9 km/h (4 Bft) 100 %
19.02.2020 06:32 3,9 C 94 % 1014,4 hPa 0,0 l/m 0 min 0 min 0,000 mm 0,0 UV-I 0 W/m 3,0 C -2,5 C 24,1 km/h (4 Bft) 100 %
19.02.2020 06:30 4,1 C 93 % 1014,3 hPa 0,0 l/m 0 min 2 min 0,000 mm 0,0 UV-I 0 W/m 3,1 C -3,7 C 27,4 km/h (4 Bft) 98 %
19.02.2020 06:28 4,1 C 94 % 1014,3 hPa 0,2 l/m 0 min 2 min 0,000 mm 0,0 UV-I 0 W/m 3,2 C -2,5 C 27,4 km/h (4 Bft) 100 %
19.02.2020 06:26 4,3 C 94 % 1014,3 hPa 0,0 l/m 0 min 2 min 0,000 mm 0,0 UV-I 0 W/m 3,4 C -4,0 C 30,6 km/h (5 Bft) 98 %
19.02.2020 06:24 4,4 C 94 % 1014,2 hPa 0,2 l/m 0 min 1 min 0,000 mm 0,0 UV-I 0 W/m 3,5 C -7,3 C 40,2 km/h (6 Bft) 96 %
19.02.2020 06:23 4,4 C 94 % 1014,2 hPa 0,0 l/m 0 min 2 min 0,000 mm 0,0 UV-I 0 W/m 3,5 C -4,5 C 48,3 km/h (6 Bft) 96 %
19.02.2020 06:20 4,5 C 94 % 1014,1 hPa 0,2 l/m 0 min 2 min 0,000 mm 0,0 UV-I 0 W/m 3,6 C -1,5 C 30,6 km/h (5 Bft) 100 %
19.02.2020 06:18 4,6 C 94 % 1014,0 hPa 0,0 l/m 0 min 2 min 0,000 mm 0,0 UV-I 0 W/m 3,7 C -5,3 C 35,4 km/h (5 Bft) 96 %
19.02.2020 06:16 4,6 C 94 % 1014,0 hPa 0,0 l/m 0 min 2 min 0,000 mm 0,0 UV-I 0 W/m 3,7 C -4,1 C 30,6 km/h (5 Bft) 94 %
19.02.2020 06:14 4,6 C 94 % 1013,9 hPa 0,0 l/m 0 min 2 min 0,000 mm 0,0 UV-I 0 W/m 3,7 C -3,2 C 29,0 km/h (5 Bft) 96 %
19.02.2020 06:12 4,6 C 94 % 1013,9 hPa 0,0 l/m 0 min 2 min 0,000 mm 0,0 UV-I 0 W/m 3,7 C -2,0 C 30,6 km/h (5 Bft) 96 %
19.02.2020 06:10 4,6 C 94 % 1013,9 hPa 0,0 l/m 0 min 2 min 0,000 mm 0,0 UV-I 0 W/m 3,7 C -2,7 C 33,8 km/h (5 Bft) 93 %
19.02.2020 06:08 4,6 C 94 % 1013,9 hPa 0,0 l/m 0 min 2 min 0,000 mm 0,0 UV-I 0 W/m 3,7 C -0,1 C 29,0 km/h (5 Bft) 96 %
19.02.2020 06:06 4,6 C 94 % 1013,8 hPa 0,2 l/m 0 min 2 min 0,000 mm 0,0 UV-I 0 W/m 3,7 C -3,6 C 37,0 km/h (5 Bft) 94 %
19.02.2020 06:04 4,6 C 94 % 1013,7 hPa 0,0 l/m 0 min 2 min 0,000 mm 0,0 UV-I 0 W/m 3,7 C -3,5 C 40,2 km/h (6 Bft) 95 %
19.02.2020 06:00 4,6 C 94 % 1013,7 hPa 0,0 l/m 0 min 2 min 0,000 mm 0,0 UV-I 0 W/m 3,7 C -1,8 C 35,4 km/h (5 Bft) 94 %
19.02.2020 05:58 4,6 C 94 % 1013,7 hPa 0,0 l/m 0 min 2 min 0,000 mm 0,0 UV-I 0 W/m 3,7 C 1,3 C 20,9 km/h (4 Bft) 96 %
19.02.2020 05:56 4,6 C 94 % 1013,7 hPa 0,0 l/m 0 min 2 min 0,000 mm 0,0 UV-I 0 W/m 3,7 C -2,5 C 32,2 km/h (5 Bft) 91 %
19.02.2020 05:54 4,6 C 94 % 1013,7 hPa 0,0 l/m 0 min 2 min 0,000 mm 0,0 UV-I 0 W/m 3,7 C 0,1 C 25,7 km/h (4 Bft) 96 %
19.02.2020 05:52 4,6 C 94 % 1013,7 hPa 0,0 l/m 0 min 2 min 0,000 mm 0,0 UV-I 0 W/m 3,7 C -3,3 C 37,0 km/h (5 Bft) 96 %
19.02.2020 05:50 4,6 C 94 % 1013,6 hPa 0,0 l/m 0 min 2 min 0,000 mm 0,0 UV-I 0 W/m 3,7 C -0,9 C 29,0 km/h (5 Bft) 98 %
19.02.2020 05:48 4,6 C 94 % 1013,6 hPa 0,0 l/m 0 min 2 min 0,000 mm 0,0 UV-I 0 W/m 3,7 C -1,2 C 32,2 km/h (5 Bft) 98 %
19.02.2020 05:46 4,6 C 94 % 1013,5 hPa 0,0 l/m 0 min 2 min 0,000 mm 0,0 UV-I 0 W/m 3,7 C -2,7 C 25,7 km/h (4 Bft) 100 %
19.02.2020 05:44 4,6 C 94 % 1013,5 hPa 0,0 l/m 0 min 2 min 0,000 mm 0,0 UV-I 0 W/m 3,7 C -3,5 C 35,4 km/h (5 Bft) 98 %
19.02.2020 05:42 4,6 C 94 % 1013,5 hPa 0,0 l/m 0 min 2 min 0,000 mm 0,0 UV-I 0 W/m 3,7 C -2,8 C 27,4 km/h (4 Bft) 100 %
19.02.2020 05:40 4,6 C 94 % 1013,5 hPa 0,0 l/m 0 min 2 min 0,000 mm 0,0 UV-I 0 W/m 3,7 C -3,1 C 35,4 km/h (5 Bft) 96 %
19.02.2020 05:38 4,6 C 94 % 1013,5 hPa 0,0 l/m 0 min 2 min 0,000 mm 0,0 UV-I 0 W/m 3,7 C -3,3 C 37,0 km/h (5 Bft) 100 %
19.02.2020 05:36 4,5 C 94 % 1013,5 hPa 0,0 l/m 0 min 2 min 0,000 mm 0,0 UV-I 0 W/m 3,6 C -1,3 C 38,6 km/h (5 Bft) 100 %
19.02.2020 05:34 4,5 C 94 % 1013,5 hPa 0,0 l/m 0 min 2 min 0,000 mm 0,0 UV-I 0 W/m 3,6 C -4,3 C 37,0 km/h (5 Bft) 96 %
19.02.2020 05:32 4,5 C 94 % 1013,5 hPa 0,0 l/m 0 min 2 min 0,000 mm 0,0 UV-I 0 W/m 3,6 C -0,8 C 29,0 km/h (5 Bft) 98 %
19.02.2020 05:30 4,5 C 94 % 1013,5 hPa 0,0 l/m 0 min 2 min 0,000 mm 0,0 UV-I 0 W/m 3,6 C 0,5 C 22,5 km/h (4 Bft) 100 %
19.02.2020 05:28 4,5 C 94 % 1013,5 hPa 0,0 l/m 0 min 2 min 0,000 mm 0,0 UV-I 0 W/m 3,6 C -0,2 C 27,4 km/h (4 Bft) 96 %
19.02.2020 05:26 4,5 C 94 % 1013,5 hPa 0,0 l/m 0 min 2 min 0,000 mm 0,0 UV-I 0 W/m 3,6 C -2,7 C 30,6 km/h (5 Bft) 100 %
19.02.2020 05:24 4,5 C 94 % 1013,5 hPa 0,0 l/m 0 min 2 min 0,000 mm 0,0 UV-I 0 W/m 3,6 C -2,3 C 27,4 km/h (4 Bft) 100 %
19.02.2020 05:22 4,5 C 93 % 1013,3 hPa 0,0 l/m 0 min 2 min 0,000 mm 0,0 UV-I 0 W/m 3,5 C 2,2 C 24,1 km/h (4 Bft) 98 %
19.02.2020 05:20 4,5 C 93 % 1013,3 hPa 0,0 l/m 0 min 2 min 0,000 mm 0,0 UV-I 0 W/m 3,5 C 0,1 C 17,7 km/h (3 Bft) 100 %
19.02.2020 05:18 4,5 C 94 % 1013,4 hPa 0,0 l/m 0 min 2 min 0,000 mm 0,0 UV-I 0 W/m 3,6 C 2,5 C 19,3 km/h (3 Bft) 100 %
19.02.2020 05:16 4,6 C 94 % 1013,3 hPa 0,0 l/m 0 min 2 min 0,000 mm 0,0 UV-I 0 W/m 3,7 C 1,3 C 20,9 km/h (4 Bft) 100 %
19.02.2020 05:14 4,6 C 94 % 1013,3 hPa 0,0 l/m 0 min 2 min 0,000 mm 0,0 UV-I 0 W/m 3,7 C 1,1 C 22,5 km/h (4 Bft) 100 %
19.02.2020 05:12 4,6 C 94 % 1013,2 hPa 0,0 l/m 0 min 2 min 0,000 mm 0,0 UV-I 0 W/m 3,7 C 1,8 C 20,9 km/h (4 Bft) 100 %
19.02.2020 05:10 4,6 C 94 % 1013,2 hPa 0,0 l/m 0 min 2 min 0,000 mm 0,0 UV-I 0 W/m 3,7 C 1,6 C 17,7 km/h (3 Bft) 98 %
19.02.2020 05:08 4,7 C 94 % 1013,2 hPa 0,0 l/m 0 min 2 min 0,000 mm 0,0 UV-I 0 W/m 3,8 C -1,9 C 27,4 km/h (4 Bft) 98 %
19.02.2020 05:06 4,7 C 94 % 1013,2 hPa 0,0 l/m 0 min 0 min 0,000 mm 0,0 UV-I 0 W/m 3,8 C 1,9 C 24,1 km/h (4 Bft) 100 %
19.02.2020 05:04 4,7 C 94 % 1013,2 hPa 0,0 l/m 0 min 0 min 0,000 mm 0,0 UV-I 0 W/m 3,8 C -0,0 C 33,8 km/h (5 Bft) 98 %
19.02.2020 05:00 4,7 C 93 % 1013,1 hPa 0,0 l/m 0 min 2 min 0,000 mm 0,0 UV-I 0 W/m 3,7 C 2,3 C 19,3 km/h (3 Bft) 97 %
19.02.2020 04:58 4,7 C 93 % 1013,0 hPa 0,0 l/m 0 min 2 min 0,000 mm 0,0 UV-I 0 W/m 3,7 C 0,2 C 19,3 km/h (3 Bft) 100 %
19.02.2020 04:56 4,7 C 93 % 1013,0 hPa 0,2 l/m 0 min 2 min 0,000 mm 0,0 UV-I 0 W/m 3,7 C -1,4 C 24,1 km/h (4 Bft) 100 %
19.02.2020 04:54 4,7 C 93 % 1012,8 hPa 0,0 l/m 0 min 2 min 0,000 mm 0,0 UV-I 0 W/m 3,7 C -0,1 C 29,0 km/h (5 Bft) 96 %
19.02.2020 04:52 4,8 C 93 % 1012,8 hPa 0,2 l/m 0 min 2 min 0,000 mm 0,0 UV-I 0 W/m 3,8 C 1,3 C 22,5 km/h (4 Bft) 98 %
19.02.2020 04:50 4,8 C 93 % 1012,9 hPa 0,0 l/m 0 min 2 min 0,000 mm 0,0 UV-I 0 W/m 3,8 C 0,3 C 22,5 km/h (4 Bft) 96 %
19.02.2020 04:48 4,8 C 93 % 1012,7 hPa 0,0 l/m 0 min 2 min 0,000 mm 0,0 UV-I 0 W/m 3,8 C 1,4 C 20,9 km/h (4 Bft) 96 %
19.02.2020 04:46 4,8 C 93 % 1012,6 hPa 0,0 l/m 0 min 2 min 0,000 mm 0,0 UV-I 0 W/m 3,8 C 2,1 C 20,9 km/h (4 Bft) 98 %
19.02.2020 04:44 4,8 C 93 % 1012,7 hPa 0,0 l/m 0 min 2 min 0,000 mm 0,0 UV-I 0 W/m 3,8 C 2,4 C 24,1 km/h (4 Bft) 96 %
19.02.2020 04:42 4,9 C 93 % 1012,7 hPa 0,0 l/m 0 min 2 min 0,000 mm 0,0 UV-I 0 W/m 3,9 C 2,6 C 17,7 km/h (3 Bft) 96 %
19.02.2020 04:40 4,9 C 93 % 1012,6 hPa 0,0 l/m 0 min 2 min 0,000 mm 0,0 UV-I 0 W/m 3,9 C -0,4 C 24,1 km/h (4 Bft) 98 %
19.02.2020 04:38 4,9 C 93 % 1012,6 hPa 0,0 l/m 0 min 2 min 0,000 mm 0,0 UV-I 0 W/m 3,9 C -1,3 C 27,4 km/h (4 Bft) 96 %
19.02.2020 04:36 4,9 C 93 % 1012,6 hPa 0,0 l/m 0 min 0 min 0,000 mm 0,0 UV-I 0 W/m 3,9 C 2,5 C 25,7 km/h (4 Bft) 98 %
19.02.2020 04:34 4,9 C 93 % 1012,7 hPa 0,0 l/m 0 min 0 min 0,000 mm 0,0 UV-I 0 W/m 3,9 C 0,7 C 27,4 km/h (4 Bft) 96 %
19.02.2020 04:32 4,9 C 93 % 1012,6 hPa 0,0 l/m 0 min 2 min 0,000 mm 0,0 UV-I 0 W/m 3,9 C 3,0 C 24,1 km/h (4 Bft) 94 %
19.02.2020 04:30 4,9 C 94 % 1012,7 hPa 0,0 l/m 0 min 2 min 0,000 mm 0,0 UV-I 0 W/m 4,0 C 4,1 C 20,9 km/h (4 Bft) 100 %
19.02.2020 04:28 4,9 C 93 % 1012,6 hPa 0,0 l/m 0 min 2 min 0,000 mm 0,0 UV-I 0 W/m 3,9 C 1,1 C 22,5 km/h (4 Bft) 100 %
19.02.2020 04:26 4,9 C 93 % 1012,6 hPa 0,0 l/m 0 min 0 min 0,000 mm 0,0 UV-I 0 W/m 3,9 C 0,7 C 24,1 km/h (4 Bft) 98 %
19.02.2020 04:24 4,9 C 93 % 1012,7 hPa 0,0 l/m 0 min 2 min 0,000 mm 0,0 UV-I 0 W/m 3,9 C 2,2 C 19,3 km/h (3 Bft) 98 %
19.02.2020 04:22 4,9 C 93 % 1012,7 hPa 0,0 l/m 0 min 2 min 0,000 mm 0,0 UV-I 0 W/m 3,9 C -1,0 C 25,7 km/h (4 Bft) 98 %
19.02.2020 04:20 4,9 C 93 % 1012,7 hPa 0,0 l/m 0 min 2 min 0,000 mm 0,0 UV-I 0 W/m 3,9 C 0,5 C 20,9 km/h (4 Bft) 96 %
19.02.2020 04:18 4,8 C 93 % 1012,7 hPa 0,2 l/m 0 min 2 min 0,000 mm 0,0 UV-I 0 W/m 3,8 C -0,1 C 22,5 km/h (4 Bft) 97 %
19.02.2020 04:16 4,8 C 93 % 1012,6 hPa 0,0 l/m 0 min 2 min 0,000 mm 0,0 UV-I 0 W/m 3,8 C 1,2 C 20,9 km/h (4 Bft) 98 %
19.02.2020 04:14 4,7 C 93 % 1012,6 hPa 0,0 l/m 0 min 2 min 0,000 mm 0,0 UV-I 0 W/m 3,7 C -2,0 C 30,6 km/h (5 Bft) 98 %
19.02.2020 04:12 4,7 C 93 % 1012,5 hPa 0,0 l/m 0 min 2 min 0,000 mm 0,0 UV-I 0 W/m 3,7 C 4,7 C 14,5 km/h (3 Bft) 96 %
19.02.2020 04:10 4,6 C 92 % 1012,6 hPa 0,0 l/m 0 min 0 min 0,000 mm 0,0 UV-I 0 W/m 3,4 C 3,0 C 16,1 km/h (3 Bft) 98 %
19.02.2020 04:08 4,5 C 92 % 1012,6 hPa 0,0 l/m 0 min 0 min 0,000 mm 0,0 UV-I 0 W/m 3,3 C 4,3 C 16,1 km/h (3 Bft) 98 %
19.02.2020 04:06 4,5 C 92 % 1012,5 hPa 0,0 l/m 0 min 2 min 0,000 mm 0,0 UV-I 0 W/m 3,3 C 3,4 C 17,7 km/h (3 Bft) 96 %
19.02.2020 04:04 4,4 C 92 % 1012,4 hPa 0,2 l/m 0 min 2 min 0,026 mm 0,0 UV-I 0 W/m 3,2 C 1,4 C 20,9 km/h (4 Bft) 98 %
19.02.2020 04:00 4,4 C 91 % 1012,5 hPa 0,0 l/m 0 min 2 min 0,000 mm 0,0 UV-I 0 W/m 3,1 C 0,4 C 19,3 km/h (3 Bft) 98 %
19.02.2020 03:58 4,4 C 91 % 1012,4 hPa 0,0 l/m 0 min 2 min 0,000 mm 0,0 UV-I 0 W/m 3,1 C 4,4 C 14,5 km/h (3 Bft) 96 %
19.02.2020 03:56 4,5 C 91 % 1012,4 hPa 0,2 l/m 0 min 2 min 0,000 mm 0,0 UV-I 0 W/m 3,2 C 1,9 C 16,1 km/h (3 Bft) 91 %
19.02.2020 03:54 4,6 C 90 % 1012,5 hPa 0,2 l/m 0 min 2 min 0,000 mm 0,0 UV-I 0 W/m 3,1 C 1,6 C 20,9 km/h (4 Bft) 100 %
19.02.2020 03:52 4,7 C 90 % 1012,7 hPa 0,0 l/m 0 min 2 min 0,000 mm 0,0 UV-I 0 W/m 3,2 C -0,1 C 24,1 km/h (4 Bft) 100 %
19.02.2020 03:50 4,8 C 90 % 1012,7 hPa 0,4 l/m 0 min 2 min 0,000 mm 0,0 UV-I 0 W/m 3,3 C 0,0 C 29,0 km/h (5 Bft) 98 %
19.02.2020 03:48 5,1 C 90 % 1012,8 hPa 0,2 l/m 0 min 2 min 0,000 mm 0,0 UV-I 0 W/m 3,6 C -2,6 C 29,0 km/h (5 Bft) 100 %
19.02.2020 03:46 5,3 C 90 % 1013,0 hPa 0,2 l/m 0 min 2 min 0,000 mm 0,0 UV-I 0 W/m 3,8 C -4,6 C 38,6 km/h (5 Bft) 100 %
19.02.2020 03:44 5,6 C 90 % 1012,7 hPa 0,2 l/m 0 min 2 min 0,000 mm 0,0 UV-I 0 W/m 4,1 C -3,6 C 32,2 km/h (5 Bft) 100 %
19.02.2020 03:42 5,7 C 90 % 1012,8 hPa 0,0 l/m 0 min 2 min 0,000 mm 0,0 UV-I 0 W/m 4,2 C -3,8 C 41,8 km/h (6 Bft) 98 %
19.02.2020 03:40 5,8 C 91 % 1012,8 hPa 0,0 l/m 0 min 2 min 0,000 mm 0,0 UV-I 0 W/m 4,4 C -0,4 C 24,1 km/h (4 Bft) 94 %
19.02.2020 03:38 5,8 C 91 % 1012,8 hPa 0,0 l/m 0 min 2 min 0,000 mm 0,0 UV-I 0 W/m 4,4 C 0,8 C 19,3 km/h (3 Bft) 100 %
19.02.2020 03:36 5,9 C 91 % 1012,8 hPa 0,2 l/m 0 min 2 min 0,000 mm 0,0 UV-I 0 W/m 4,5 C 0,7 C 20,9 km/h (4 Bft) 98 %
19.02.2020 03:34 5,8 C 91 % 1012,7 hPa 0,0 l/m 0 min 2 min 0,000 mm 0,0 UV-I 0 W/m 4,4 C 3,4 C 22,5 km/h (4 Bft) 100 %
19.02.2020 03:32 5,8 C 91 % 1012,6 hPa 0,0 l/m 0 min 2 min 0,000 mm 0,0 UV-I 0 W/m 4,4 C 3,6 C 17,7 km/h (3 Bft) 95 %
19.02.2020 03:30 5,8 C 91 % 1012,5 hPa 0,0 l/m 0 min 2 min 0,000 mm 0,0 UV-I 0 W/m 4,4 C 1,2 C 29,0 km/h (5 Bft) 100 %
19.02.2020 03:28 5,8 C 91 % 1012,4 hPa 0,0 l/m 0 min 2 min 0,000 mm 0,0 UV-I 0 W/m 4,4 C 4,7 C 20,9 km/h (4 Bft) 94 %
19.02.2020 03:26 5,7 C 91 % 1012,4 hPa 0,0 l/m 0 min 2 min 0,000 mm 0,0 UV-I 0 W/m 4,3 C 1,0 C 20,9 km/h (4 Bft) 94 %
19.02.2020 03:24 5,7 C 91 % 1012,4 hPa 0,0 l/m 0 min 2 min 0,000 mm 0,0 UV-I 0 W/m 4,3 C 1,6 C 24,1 km/h (4 Bft) 96 %
19.02.2020 03:22 5,7 C 91 % 1012,3 hPa 0,0 l/m 0 min 2 min 0,000 mm 0,0 UV-I 0 W/m 4,3 C 5,4 C 22,5 km/h (4 Bft) 94 %
19.02.2020 03:20 5,6 C 91 % 1012,2 hPa 0,0 l/m 0 min 2 min 0,000 mm 0,0 UV-I 0 W/m 4,2 C 2,3 C 22,5 km/h (4 Bft) 96 %
19.02.2020 03:18 5,6 C 91 % 1012,1 hPa 0,0 l/m 0 min 2 min 0,000 mm 0,0 UV-I 0 W/m 4,2 C 0,8 C 25,7 km/h (4 Bft) 91 %
19.02.2020 03:16 5,6 C 90 % 1012,2 hPa 0,0 l/m 0 min 2 min 0,000 mm 0,0 UV-I 0 W/m 4,1 C 4,0 C 22,5 km/h (4 Bft) 96 %
19.02.2020 03:14 5,6 C 90 % 1012,2 hPa 0,0 l/m 0 min 2 min 0,000 mm 0,0 UV-I 0 W/m 4,1 C -0,6 C 29,0 km/h (5 Bft) 96 %
19.02.2020 03:12 5,6 C 90 % 1012,1 hPa 0,0 l/m 0 min 2 min 0,000 mm 0,0 UV-I 0 W/m 4,1 C 2,1 C 20,9 km/h (4 Bft) 96 %
19.02.2020 03:10 5,6 C 90 % 1012,0 hPa 0,0 l/m 0 min 2 min 0,000 mm 0,0 UV-I 0 W/m 4,1 C 0,2 C 22,5 km/h (4 Bft) 96 %
19.02.2020 03:08 5,6 C 90 % 1012,1 hPa 0,0 l/m 0 min 2 min 0,000 mm 0,0 UV-I 0 W/m 4,1 C 0,1 C 24,1 km/h (4 Bft) 98 %
19.02.2020 03:06 5,6 C 90 % 1012,1 hPa 0,0 l/m 0 min 2 min 0,000 mm 0,0 UV-I 0 W/m 4,1 C -0,6 C 29,0 km/h (5 Bft) 94 %
19.02.2020 03:04 5,6 C 90 % 1012,0 hPa 0,0 l/m 0 min 2 min 0,000 mm 0,0 UV-I 0 W/m 4,1 C 0,8 C 27,4 km/h (4 Bft) 98 %
19.02.2020 03:00 5,6 C 90 % 1012,1 hPa 0,0 l/m 0 min 2 min 0,025 mm 0,0 UV-I 0 W/m 4,1 C -3,1 C 37,0 km/h (5 Bft) 93 %
19.02.2020 02:58 5,6 C 91 % 1012,0 hPa 0,0 l/m 0 min 2 min 0,000 mm 0,0 UV-I 0 W/m 4,2 C -4,1 C 40,2 km/h (6 Bft) 98 %
19.02.2020 02:56 5,6 C 91 % 1012,2 hPa 0,0 l/m 0 min 2 min 0,000 mm 0,0 UV-I 0 W/m 4,2 C -2,6 C 33,8 km/h (5 Bft) 98 %
19.02.2020 02:54 5,6 C 91 % 1012,1 hPa 0,0 l/m 0 min 2 min 0,000 mm 0,0 UV-I 0 W/m 4,2 C -1,7 C 29,0 km/h (5 Bft) 98 %
19.02.2020 02:52 5,6 C 91 % 1012,2 hPa 0,0 l/m 0 min 2 min 0,000 mm 0,0 UV-I 0 W/m 4,2 C -0,3 C 30,6 km/h (5 Bft) 94 %
19.02.2020 02:50 5,6 C 91 % 1012,2 hPa 0,0 l/m 0 min 2 min 0,000 mm 0,0 UV-I 0 W/m 4,2 C -2,4 C 37,0 km/h (5 Bft) 96 %
19.02.2020 02:48 5,6 C 91 % 1012,1 hPa 0,0 l/m 0 min 2 min 0,000 mm 0,0 UV-I 0 W/m 4,2 C -2,4 C 33,8 km/h (5 Bft) 96 %
19.02.2020 02:46 5,6 C 91 % 1012,1 hPa 0,0 l/m 0 min 2 min 0,000 mm 0,0 UV-I 0 W/m 4,2 C -2,2 C 29,0 km/h (5 Bft) 94 %
19.02.2020 02:44 5,7 C 91 % 1012,1 hPa 0,0 l/m 0 min 2 min 0,000 mm 0,0 UV-I 0 W/m 4,3 C -2,0 C 33,8 km/h (5 Bft) 98 %
19.02.2020 02:42 5,7 C 91 % 1012,1 hPa 0,0 l/m 0 min 2 min 0,000 mm 0,0 UV-I 0 W/m 4,3 C -1,1 C 37,0 km/h (5 Bft) 96 %
19.02.2020 02:40 5,7 C 90 % 1012,1 hPa 0,0 l/m 0 min 2 min 0,000 mm 0,0 UV-I 0 W/m 4,2 C 0,4 C 20,9 km/h (4 Bft) 98 %
19.02.2020 02:38 5,7 C 90 % 1012,2 hPa 0,0 l/m 0 min 2 min 0,000 mm 0,0 UV-I 0 W/m 4,2 C -0,8 C 29,0 km/h (5 Bft) 96 %
19.02.2020 02:36 5,7 C 90 % 1012,3 hPa 0,0 l/m 0 min 2 min 0,000 mm 0,0 UV-I 0 W/m 4,2 C -1,0 C 30,6 km/h (5 Bft) 96 %
19.02.2020 02:34 5,8 C 90 % 1012,3 hPa 0,0 l/m 0 min 2 min 0,000 mm 0,0 UV-I 0 W/m 4,3 C 0,5 C 27,4 km/h (4 Bft) 91 %
19.02.2020 02:32 5,8 C 90 % 1012,3 hPa 0,2 l/m 0 min 2 min 0,000 mm 0,0 UV-I 0 W/m 4,3 C -0,1 C 24,1 km/h (4 Bft) 96 %
19.02.2020 02:30 5,8 C 90 % 1012,3 hPa 0,0 l/m 0 min 2 min 0,000 mm 0,0 UV-I 0 W/m 4,3 C -1,2 C 30,6 km/h (5 Bft) 94 %
19.02.2020 02:28 5,8 C 90 % 1012,3 hPa 0,0 l/m 0 min 2 min 0,000 mm 0,0 UV-I 0 W/m 4,3 C -0,8 C 25,7 km/h (4 Bft) 96 %
19.02.2020 02:26 5,9 C 90 % 1012,5 hPa 0,0 l/m 0 min 2 min 0,000 mm 0,0 UV-I 0 W/m 4,4 C -1,7 C 30,6 km/h (5 Bft) 96 %
19.02.2020 02:24 5,9 C 90 % 1012,5 hPa 0,0 l/m 0 min 2 min 0,000 mm 0,0 UV-I 0 W/m 4,4 C -0,7 C 29,0 km/h (5 Bft) 94 %
19.02.2020 02:22 5,9 C 90 % 1012,5 hPa 0,0 l/m 0 min 2 min 0,000 mm 0,0 UV-I 0 W/m 4,4 C -2,5 C 32,2 km/h (5 Bft) 94 %
19.02.2020 02:20 5,9 C 90 % 1012,5 hPa 0,0 l/m 0 min 2 min 0,000 mm 0,0 UV-I 0 W/m 4,4 C -2,0 C 30,6 km/h (5 Bft) 96 %
19.02.2020 02:18 5,9 C 90 % 1012,6 hPa 0,0 l/m 0 min 2 min 0,000 mm 0,0 UV-I 0 W/m 4,4 C 0,9 C 20,9 km/h (4 Bft) 94 %
19.02.2020 02:16 6,0 C 90 % 1012,6 hPa 0,0 l/m 0 min 2 min 0,000 mm 0,0 UV-I 0 W/m 4,5 C 1,1 C 20,9 km/h (4 Bft) 98 %
19.02.2020 02:14 6,0 C 90 % 1012,7 hPa 0,0 l/m 0 min 2 min 0,000 mm 0,0 UV-I 0 W/m 4,5 C -0,9 C 25,7 km/h (4 Bft) 89 %
19.02.2020 02:12 6,1 C 90 % 1012,7 hPa 0,0 l/m 0 min 2 min 0,000 mm 0,0 UV-I 0 W/m 4,6 C -0,0 C 27,4 km/h (4 Bft) 89 %
19.02.2020 02:10 6,1 C 90 % 1012,8 hPa 0,0 l/m 0 min 2 min 0,000 mm 0,0 UV-I 0 W/m 4,6 C 0,3 C 35,4 km/h (5 Bft) 91 %
19.02.2020 02:08 6,1 C 90 % 1012,7 hPa 0,0 l/m 0 min 2 min 0,000 mm 0,0 UV-I 0 W/m 4,6 C -1,5 C 35,4 km/h (5 Bft) 91 %
19.02.2020 02:06 6,2 C 90 % 1012,8 hPa 0,0 l/m 0 min 2 min 0,000 mm 0,0 UV-I 0 W/m 4,7 C -1,4 C 32,2 km/h (5 Bft) 94 %
19.02.2020 02:04 6,2 C 90 % 1012,9 hPa 0,2 l/m 0 min 2 min 0,000 mm 0,0 UV-I 0 W/m 4,7 C -1,1 C 27,4 km/h (4 Bft) 93 %
19.02.2020 02:00 6,3 C 90 % 1013,2 hPa 0,0 l/m 0 min 2 min 0,026 mm 0,0 UV-I 0 W/m 4,8 C -1,5 C 41,8 km/h (6 Bft) 94 %
19.02.2020 01:58 6,3 C 89 % 1013,2 hPa 0,0 l/m 0 min 2 min 0,000 mm 0,0 UV-I 0 W/m 4,6 C -0,1 C 27,4 km/h (4 Bft) 98 %
19.02.2020 01:56 6,3 C 89 % 1013,4 hPa 0,0 l/m 0 min 2 min 0,000 mm 0,0 UV-I 0 W/m 4,6 C -0,1 C 29,0 km/h (5 Bft) 96 %
19.02.2020 01:54 6,4 C 89 % 1013,4 hPa 0,0 l/m 0 min 2 min 0,000 mm 0,0 UV-I 0 W/m 4,7 C -0,2 C 27,4 km/h (4 Bft) 98 %
19.02.2020 01:52 6,4 C 89 % 1013,4 hPa 0,2 l/m 0 min 2 min 0,000 mm 0,0 UV-I 0 W/m 4,7 C -0,0 C 32,2 km/h (5 Bft) 96 %
19.02.2020 01:50 6,4 C 89 % 1013,5 hPa 0,0 l/m 0 min 2 min 0,000 mm 0,0 UV-I 0 W/m 4,7 C 0,3 C 27,4 km/h (4 Bft) 96 %
19.02.2020 01:48 6,4 C 89 % 1013,6 hPa 0,0 l/m 0 min 2 min 0,000 mm 0,0 UV-I 0 W/m 4,7 C 0,4 C 22,5 km/h (4 Bft) 100 %
19.02.2020 01:46 6,5 C 88 % 1013,6 hPa 0,2 l/m 0 min 2 min 0,000 mm 0,0 UV-I 0 W/m 4,7 C 1,5 C 30,6 km/h (5 Bft) 96 %
19.02.2020 01:44 6,4 C 88 % 1013,5 hPa 0,0 l/m 0 min 2 min 0,000 mm 0,0 UV-I 0 W/m 4,6 C -0,4 C 24,1 km/h (4 Bft) 100 %
19.02.2020 01:42 6,4 C 88 % 1013,6 hPa 0,0 l/m 0 min 2 min 0,000 mm 0,0 UV-I 0 W/m 4,6 C -0,2 C 24,1 km/h (4 Bft) 98 %
19.02.2020 01:40 6,4 C 88 % 1013,6 hPa 0,0 l/m 0 min 2 min 0,000 mm 0,0 UV-I 0 W/m 4,6 C 0,1 C 29,0 km/h (5 Bft) 100 %
19.02.2020 01:38 6,5 C 88 % 1013,5 hPa 0,0 l/m 0 min 2 min 0,000 mm 0,0 UV-I 0 W/m 4,7 C 4,1 C 20,9 km/h (4 Bft) 100 %
19.02.2020 01:36 6,5 C 88 % 1013,5 hPa 0,0 l/m 0 min 2 min 0,000 mm 0,0 UV-I 0 W/m 4,7 C 0,1 C 33,8 km/h (5 Bft) 100 %
19.02.2020 01:34 6,5 C 88 % 1013,6 hPa 0,0 l/m 0 min 2 min 0,000 mm 0,0 UV-I 0 W/m 4,7 C 1,6 C 20,9 km/h (4 Bft) 100 %
19.02.2020 01:32 6,5 C 88 % 1013,5 hPa 0,0 l/m 0 min 0 min 0,000 mm 0,0 UV-I 0 W/m 4,7 C 1,1 C 20,9 km/h (4 Bft) 100 %
19.02.2020 01:30 6,5 C 87 % 1013,5 hPa 0,0 l/m 0 min 2 min 0,000 mm 0,0 UV-I 0 W/m 4,5 C 2,4 C 29,0 km/h (5 Bft) 96 %
19.02.2020 01:28 6,6 C 88 % 1013,5 hPa 0,0 l/m 0 min 2 min 0,000 mm 0,0 UV-I 0 W/m 4,8 C 1,6 C 30,6 km/h (5 Bft) 100 %
19.02.2020 01:26 6,6 C 87 % 1013,4 hPa 0,0 l/m 0 min 2 min 0,000 mm 0,0 UV-I 0 W/m 4,6 C 1,4 C 24,1 km/h (4 Bft) 100 %
19.02.2020 01:24 6,6 C 87 % 1013,6 hPa 0,0 l/m 0 min 2 min 0,000 mm 0,0 UV-I 0 W/m 4,6 C 2,1 C 30,6 km/h (5 Bft) 100 %
19.02.2020 01:22 6,7 C 87 % 1013,6 hPa 0,0 l/m 0 min 2 min 0,000 mm 0,0 UV-I 0 W/m 4,7 C -0,6 C 32,2 km/h (5 Bft) 94 %
19.02.2020 01:20 6,6 C 87 % 1013,7 hPa 0,0 l/m 0 min 2 min 0,000 mm 0,0 UV-I 0 W/m 4,6 C 0,5 C 27,4 km/h (4 Bft) 100 %
19.02.2020 01:18 6,7 C 87 % 1013,9 hPa 0,0 l/m 0 min 2 min 0,000 mm 0,0 UV-I 0 W/m 4,7 C -0,2 C 32,2 km/h (5 Bft) 100 %
19.02.2020 01:16 6,7 C 87 % 1013,7 hPa 0,0 l/m 0 min 2 min 0,000 mm 0,0 UV-I 0 W/m 4,7 C -0,9 C 33,8 km/h (5 Bft) 100 %
19.02.2020 01:14 6,7 C 87 % 1013,9 hPa 0,0 l/m 0 min 2 min 0,000 mm 0,0 UV-I 0 W/m 4,7 C -1,4 C 29,0 km/h (5 Bft) 100 %
19.02.2020 01:12 6,7 C 87 % 1013,9 hPa 0,0 l/m 0 min 2 min 0,000 mm 0,0 UV-I 0 W/m 4,7 C -0,9 C 29,0 km/h (5 Bft) 100 %
19.02.2020 01:10 6,8 C 86 % 1014,0 hPa 0,0 l/m 0 min 2 min 0,000 mm 0,0 UV-I 0 W/m 4,6 C 2,0 C 27,4 km/h (4 Bft) 100 %
19.02.2020 01:08 6,8 C 86 % 1014,0 hPa 0,0 l/m 0 min 2 min 0,000 mm 0,0 UV-I 0 W/m 4,6 C 1,5 C 20,9 km/h (4 Bft) 100 %
19.02.2020 01:06 6,8 C 86 % 1014,0 hPa 0,0 l/m 0 min 2 min 0,000 mm 0,0 UV-I 0 W/m 4,6 C -1,0 C 40,2 km/h (6 Bft) 96 %
19.02.2020 01:04 6,8 C 86 % 1014,0 hPa 0,0 l/m 0 min 2 min 0,000 mm 0,0 UV-I 0 W/m 4,6 C 1,5 C 35,4 km/h (5 Bft) 100 %
19.02.2020 01:00 6,9 C 86 % 1014,2 hPa 0,0 l/m 0 min 2 min 0,025 mm 0,0 UV-I 0 W/m 4,7 C 0,3 C 30,6 km/h (5 Bft) 100 %
19.02.2020 00:58 6,9 C 85 % 1014,2 hPa 0,0 l/m 0 min 2 min 0,000 mm 0,0 UV-I 0 W/m 4,6 C 1,9 C 24,1 km/h (4 Bft) 98 %
19.02.2020 00:56 6,9 C 85 % 1014,2 hPa 0,0 l/m 0 min 2 min 0,000 mm 0,0 UV-I 0 W/m 4,6 C 0,1 C 30,6 km/h (5 Bft) 100 %
19.02.2020 00:54 6,9 C 85 % 1014,3 hPa 0,0 l/m 0 min 0 min 0,000 mm 0,0 UV-I 0 W/m 4,6 C 4,9 C 27,4 km/h (4 Bft) 98 %
19.02.2020 00:52 6,9 C 85 % 1014,4 hPa 0,0 l/m 0 min 0 min 0,000 mm 0,0 UV-I 0 W/m 4,6 C 6,3 C 14,5 km/h (3 Bft) 96 %
19.02.2020 00:50 6,9 C 85 % 1014,3 hPa 0,0 l/m 0 min 0 min 0,000 mm 0,0 UV-I 0 W/m 4,6 C 4,2 C 24,1 km/h (4 Bft) 98 %
19.02.2020 00:48 6,8 C 85 % 1014,4 hPa 0,0 l/m 0 min 2 min 0,000 mm 0,0 UV-I 0 W/m 4,5 C 2,3 C 22,5 km/h (4 Bft) 96 %
19.02.2020 00:46 6,8 C 84 % 1014,4 hPa 0,0 l/m 0 min 0 min 0,000 mm 0,0 UV-I 0 W/m 4,3 C 2,2 C 27,4 km/h (4 Bft) 98 %
19.02.2020 00:44 6,8 C 84 % 1014,3 hPa 0,0 l/m 0 min 0 min 0,000 mm 0,0 UV-I 0 W/m 4,3 C 1,2 C 24,1 km/h (4 Bft) 98 %
19.02.2020 00:42 6,8 C 85 % 1014,3 hPa 0,0 l/m 0 min 0 min 0,000 mm 0,0 UV-I 0 W/m 4,5 C 1,5 C 24,1 km/h (4 Bft) 91 %
19.02.2020 00:40 6,7 C 85 % 1014,4 hPa 0,0 l/m 0 min 0 min 0,000 mm 0,0 UV-I 0 W/m 4,4 C -0,1 C 35,4 km/h (5 Bft) 93 %
19.02.2020 00:38 6,7 C 85 % 1014,5 hPa 0,0 l/m 0 min 0 min 0,000 mm 0,0 UV-I 0 W/m 4,4 C -0,5 C 29,0 km/h (5 Bft) 94 %
19.02.2020 00:36 6,6 C 85 % 1014,5 hPa 0,0 l/m 0 min 0 min 0,000 mm 0,0 UV-I 0 W/m 4,3 C 1,6 C 27,4 km/h (4 Bft) 94 %
19.02.2020 00:34 6,6 C 85 % 1014,5 hPa 0,0 l/m 0 min 0 min 0,000 mm 0,0 UV-I 0 W/m 4,3 C 2,4 C 25,7 km/h (4 Bft) 94 %
19.02.2020 00:32 6,6 C 85 % 1014,6 hPa 0,0 l/m 0 min 0 min 0,000 mm 0,0 UV-I 0 W/m 4,3 C 4,3 C 19,3 km/h (3 Bft) 91 %
19.02.2020 00:30 6,6 C 85 % 1014,6 hPa 0,0 l/m 0 min 0 min 0,000 mm 0,0 UV-I 0 W/m 4,3 C -0,1 C 25,7 km/h (4 Bft) 93 %
19.02.2020 00:28 6,6 C 85 % 1014,6 hPa 0,0 l/m 0 min 0 min 0,000 mm 0,0 UV-I 0 W/m 4,3 C 2,2 C 20,9 km/h (4 Bft) 96 %
19.02.2020 00:26 6,6 C 85 % 1014,7 hPa 0,0 l/m 0 min 0 min 0,000 mm 0,0 UV-I 0 W/m 4,3 C -0,2 C 33,8 km/h (5 Bft) 96 %
19.02.2020 00:24 6,6 C 84 % 1014,7 hPa 0,0 l/m 0 min 0 min 0,000 mm 0,0 UV-I 0 W/m 4,1 C 5,9 C 16,1 km/h (3 Bft) 100 %
19.02.2020 00:23 6,6 C 84 % 1014,7 hPa 0,0 l/m 0 min 0 min 0,000 mm 0,0 UV-I 0 W/m 4,1 C 3,3 C 17,7 km/h (3 Bft) 95 %
19.02.2020 00:20 6,6 C 84 % 1014,9 hPa 0,0 l/m 0 min 0 min 0,000 mm 0,0 UV-I 0 W/m 4,1 C 3,0 C 19,3 km/h (3 Bft) 97 %
19.02.2020 00:18 6,6 C 84 % 1015,0 hPa 0,0 l/m 0 min 0 min 0,000 mm 0,0 UV-I 0 W/m 4,1 C 3,8 C 19,3 km/h (3 Bft) 96 %
19.02.2020 00:16 6,6 C 84 % 1015,0 hPa 0,0 l/m 0 min 0 min 0,000 mm 0,0 UV-I 0 W/m 4,1 C 3,9 C 17,7 km/h (3 Bft) 98 %
19.02.2020 00:14 6,6 C 84 % 1015,2 hPa 0,0 l/m 0 min 0 min 0,000 mm 0,0 UV-I 0 W/m 4,1 C 2,1 C 24,1 km/h (4 Bft) 96 %
19.02.2020 00:12 6,6 C 84 % 1015,1 hPa 0,0 l/m 0 min 0 min 0,000 mm 0,0 UV-I 0 W/m 4,1 C -0,0 C 30,6 km/h (5 Bft) 98 %
19.02.2020 00:10 6,5 C 84 % 1015,2 hPa 0,0 l/m 0 min 0 min 0,000 mm 0,0 UV-I 0 W/m 4,0 C -0,4 C 30,6 km/h (5 Bft) 98 %
19.02.2020 00:08 6,5 C 84 % 1015,3 hPa 0,0 l/m 0 min 0 min 0,000 mm 0,0 UV-I 0 W/m 4,0 C 1,5 C 24,1 km/h (4 Bft) 100 %
19.02.2020 00:06 6,5 C 84 % 1015,4 hPa 0,0 l/m 0 min 0 min 0,000 mm 0,0 UV-I 0 W/m 4,0 C 5,2 C 14,5 km/h (3 Bft) 100 %
19.02.2020 00:04 6,5 C 84 % 1015,4 hPa 0,0 l/m 0 min 0 min 0,000 mm 0,0 UV-I 0 W/m 4,0 C 3,9 C 20,9 km/h (4 Bft) 70 %
19.02.2020 00:00 6,5 C 84 % 1015,5 hPa 0,0 l/m 0 min 0 min 0,000 mm 0,0 UV-I 0 W/m 4,0 C 3,0 C 22,5 km/h (4 Bft) 100 %
18.02.2020 23:58 6,5 C 84 % 1015,5 hPa 0,0 l/m 0 min 0 min 0,000 mm 0,0 UV-I 0 W/m 4,0 C 4,1 C 17,7 km/h (3 Bft) 100 %
18.02.2020 23:56 6,5 C 84 % 1015,7 hPa 0,0 l/m 0 min 0 min 0,000 mm 0,0 UV-I 0 W/m 4,0 C 3,0 C 19,3 km/h (3 Bft) 100 %
18.02.2020 23:54 6,5 C 84 % 1015,8 hPa 0,0 l/m 0 min 0 min 0,000 mm 0,0 UV-I 0 W/m 4,0 C 5,7 C 24,1 km/h (4 Bft) 100 %
18.02.2020 23:52 6,4 C 84 % 1015,8 hPa 0,0 l/m 0 min 0 min 0,000 mm 0,0 UV-I 0 W/m 3,9 C 6,4 C 12,9 km/h (3 Bft) 96 %
18.02.2020 23:50 6,5 C 84 % 1015,9 hPa 0,0 l/m 0 min 0 min 0,000 mm 0,0 UV-I 0 W/m 4,0 C 6,4 C 17,7 km/h (3 Bft) 100 %
18.02.2020 23:48 6,5 C 84 % 1015,9 hPa 0,0 l/m 0 min 0 min 0,000 mm 0,0 UV-I 0 W/m 4,0 C 6,4 C 17,7 km/h (3 Bft) 96 %
18.02.2020 23:46 6,6 C 84 % 1016,1 hPa 0,0 l/m 0 min 0 min 0,000 mm 0,0 UV-I 0 W/m 4,1 C 4,2 C 16,1 km/h (3 Bft) 100 %
18.02.2020 23:44 6,6 C 84 % 1016,2 hPa 0,0 l/m 0 min 0 min 0,000 mm 0,0 UV-I 0 W/m 4,1 C 5,0 C 19,3 km/h (3 Bft) 100 %
18.02.2020 23:42 6,6 C 84 % 1016,1 hPa 0,0 l/m 0 min 0 min 0,000 mm 0,0 UV-I 0 W/m 4,1 C 6,3 C 12,9 km/h (3 Bft) 96 %
18.02.2020 23:40 6,6 C 83 % 1016,2 hPa 0,0 l/m 0 min 0 min 0,000 mm 0,0 UV-I 0 W/m 3,9 C 5,9 C 16,1 km/h (3 Bft) 100 %
18.02.2020 23:38 6,7 C 83 % 1016,2 hPa 0,0 l/m 0 min 0 min 0,000 mm 0,0 UV-I 0 W/m 4,0 C 4,4 C 16,1 km/h (3 Bft) 100 %
18.02.2020 23:36 6,7 C 83 % 1016,3 hPa 0,0 l/m 0 min 0 min 0,000 mm 0,0 UV-I 0 W/m 4,0 C 4,1 C 17,7 km/h (3 Bft) 100 %
18.02.2020 23:34 6,7 C 83 % 1016,3 hPa 0,0 l/m 0 min 2 min 0,000 mm 0,0 UV-I 0 W/m 4,0 C 1,9 C 22,5 km/h (4 Bft) 94 %
18.02.2020 23:32 6,8 C 83 % 1016,4 hPa 0,0 l/m 0 min 2 min 0,000 mm 0,0 UV-I 0 W/m 4,1 C 1,0 C 25,7 km/h (4 Bft) 98 %
18.02.2020 23:30 6,7 C 83 % 1016,5 hPa 0,0 l/m 0 min 0 min 0,000 mm 0,0 UV-I 0 W/m 4,0 C -0,2 C 30,6 km/h (5 Bft) 98 %
18.02.2020 23:28 6,7 C 83 % 1016,7 hPa 0,0 l/m 0 min 0 min 0,000 mm 0,0 UV-I 0 W/m 4,0 C 0,3 C 27,4 km/h (4 Bft) 98 %
18.02.2020 23:26 6,7 C 83 % 1016,6 hPa 0,0 l/m 0 min 0 min 0,000 mm 0,0 UV-I 0 W/m 4,0 C 0,9 C 27,4 km/h (4 Bft) 89 %
18.02.2020 23:24 6,7 C 83 % 1016,6 hPa 0,0 l/m 0 min 0 min 0,000 mm 0,0 UV-I 0 W/m 4,0 C 3,6 C 17,7 km/h (3 Bft) 96 %
18.02.2020 23:22 6,7 C 82 % 1016,7 hPa 0,0 l/m 0 min 0 min 0,000 mm 0,0 UV-I 0 W/m 3,8 C 2,5 C 24,1 km/h (4 Bft) 98 %
18.02.2020 23:20 6,8 C 82 % 1016,7 hPa 0,0 l/m 0 min 0 min 0,000 mm 0,0 UV-I 0 W/m 3,9 C 2,8 C 24,1 km/h (4 Bft) 98 %
18.02.2020 23:18 6,8 C 82 % 1016,7 hPa 0,0 l/m 0 min 0 min 0,000 mm 0,0 UV-I 0 W/m 3,9 C 2,7 C 29,0 km/h (5 Bft) 98 %
18.02.2020 23:16 6,9 C 81 % 1016,7 hPa 0,0 l/m 0 min 0 min 0,000 mm 0,0 UV-I 0 W/m 3,9 C 2,9 C 24,1 km/h (4 Bft) 98 %
18.02.2020 23:14 6,9 C 81 % 1016,7 hPa 0,0 l/m 0 min 0 min 0,000 mm 0,0 UV-I 0 W/m 3,9 C 0,8 C 22,5 km/h (4 Bft) 96 %
18.02.2020 23:12 6,9 C 81 % 1016,7 hPa 0,0 l/m 0 min 0 min 0,000 mm 0,0 UV-I 0 W/m 3,9 C 3,1 C 24,1 km/h (4 Bft) 96 %
18.02.2020 23:10 6,9 C 81 % 1016,7 hPa 0,0 l/m 0 min 0 min 0,000 mm 0,0 UV-I 0 W/m 3,9 C 2,4 C 24,1 km/h (4 Bft) 96 %
18.02.2020 23:08 6,9 C 81 % 1016,9 hPa 0,0 l/m 0 min 0 min 0,000 mm 0,0 UV-I 0 W/m 3,9 C 3,8 C 29,0 km/h (5 Bft) 98 %
18.02.2020 23:06 6,9 C 81 % 1016,9 hPa 0,0 l/m 0 min 0 min 0,000 mm 0,0 UV-I 0 W/m 3,9 C 1,8 C 24,1 km/h (4 Bft) 98 %
18.02.2020 23:04 6,9 C 81 % 1016,9 hPa 0,0 l/m 0 min 0 min 0,025 mm 0,0 UV-I 0 W/m 3,9 C 2,2 C 30,6 km/h (5 Bft) 99 %
18.02.2020 23:00 6,8 C 81 % 1017,1 hPa 0,0 l/m 0 min 0 min 0,000 mm 0,0 UV-I 0 W/m 3,8 C 0,7 C 29,0 km/h (5 Bft) 98 %
18.02.2020 22:58 6,8 C 82 % 1017,2 hPa 0,0 l/m 0 min 0 min 0,000 mm 0,0 UV-I 0 W/m 3,9 C 4,2 C 17,7 km/h (3 Bft) 100 %
18.02.2020 22:56 6,8 C 82 % 1017,3 hPa 0,0 l/m 0 min 0 min 0,000 mm 0,0 UV-I 0 W/m 3,9 C 5,3 C 17,7 km/h (3 Bft) 96 %
18.02.2020 22:54 6,8 C 82 % 1017,3 hPa 0,0 l/m 0 min 0 min 0,000 mm 0,0 UV-I 0 W/m 3,9 C 2,1 C 24,1 km/h (4 Bft) 98 %
18.02.2020 22:52 6,8 C 82 % 1017,4 hPa 0,0 l/m 0 min 0 min 0,000 mm 0,0 UV-I 0 W/m 3,9 C 2,9 C 22,5 km/h (4 Bft) 98 %
18.02.2020 22:50 6,8 C 82 % 1017,6 hPa 0,0 l/m 0 min 0 min 0,000 mm 0,0 UV-I 0 W/m 3,9 C 6,6 C 17,7 km/h (3 Bft) 96 %
18.02.2020 22:48 6,8 C 82 % 1017,6 hPa 0,0 l/m 0 min 0 min 0,000 mm 0,0 UV-I 0 W/m 3,9 C 3,9 C 17,7 km/h (3 Bft) 94 %
18.02.2020 22:46 6,8 C 82 % 1017,6 hPa 0,0 l/m 0 min 0 min 0,000 mm 0,0 UV-I 0 W/m 3,9 C 3,6 C 20,9 km/h (4 Bft) 98 %
18.02.2020 22:44 6,8 C 82 % 1017,6 hPa 0,0 l/m 0 min 0 min 0,000 mm 0,0 UV-I 0 W/m 3,9 C 5,0 C 16,1 km/h (3 Bft) 96 %
18.02.2020 22:42 6,8 C 82 % 1017,7 hPa 0,0 l/m 0 min 0 min 0,000 mm 0,0 UV-I 0 W/m 3,9 C 4,5 C 22,5 km/h (4 Bft) 96 %
18.02.2020 22:40 6,8 C 82 % 1017,7 hPa 0,0 l/m 0 min 0 min 0,000 mm 0,0 UV-I 0 W/m 3,9 C 3,9 C 19,3 km/h (3 Bft) 94 %
18.02.2020 22:38 6,8 C 82 % 1017,7 hPa 0,0 l/m 0 min 0 min 0,000 mm 0,0 UV-I 0 W/m 3,9 C 4,7 C 17,7 km/h (3 Bft) 96 %
18.02.2020 22:36 6,8 C 82 % 1017,7 hPa 0,0 l/m 0 min 0 min 0,000 mm 0,0 UV-I 0 W/m 3,9 C 2,9 C 22,5 km/h (4 Bft) 98 %
18.02.2020 22:34 6,8 C 82 % 1017,8 hPa 0,0 l/m 0 min 0 min 0,000 mm 0,0 UV-I 0 W/m 3,9 C 1,4 C 24,1 km/h (4 Bft) 96 %
18.02.2020 22:32 6,8 C 82 % 1017,9 hPa 0,0 l/m 0 min 0 min 0,000 mm 0,0 UV-I 0 W/m 3,9 C 2,7 C 24,1 km/h (4 Bft) 91 %
18.02.2020 22:30 6,8 C 82 % 1017,9 hPa 0,0 l/m 0 min 0 min 0,000 mm 0,0 UV-I 0 W/m 3,9 C 3,2 C 24,1 km/h (4 Bft) 96 %
18.02.2020 22:28 6,8 C 82 % 1017,9 hPa 0,0 l/m 0 min 0 min 0,000 mm 0,0 UV-I 0 W/m 3,9 C 2,0 C 20,9 km/h (4 Bft) 94 %
18.02.2020 22:26 6,8 C 82 % 1018,0 hPa 0,0 l/m 0 min 0 min 0,000 mm 0,0 UV-I 0 W/m 3,9 C 5,0 C 16,1 km/h (3 Bft) 94 %
18.02.2020 22:24 6,8 C 82 % 1018,0 hPa 0,0 l/m 0 min 0 min 0,000 mm 0,0 UV-I 0 W/m 3,9 C 2,4 C 22,5 km/h (4 Bft) 94 %
18.02.2020 22:22 6,8 C 82 % 1018,0 hPa 0,0 l/m 0 min 0 min 0,000 mm 0,0 UV-I 0 W/m 3,9 C 3,5 C 17,7 km/h (3 Bft) 91 %
18.02.2020 22:20 6,8 C 82 % 1018,2 hPa 0,0 l/m 0 min 0 min 0,000 mm 0,0 UV-I 0 W/m 3,9 C 5,6 C 16,1 km/h (3 Bft) 98 %
18.02.2020 22:18 6,8 C 82 % 1018,2 hPa 0,0 l/m 0 min 0 min 0,000 mm 0,0 UV-I 0 W/m 3,9 C 2,4 C 29,0 km/h (5 Bft) 98 %
18.02.2020 22:16 6,8 C 82 % 1018,3 hPa 0,0 l/m 0 min 0 min 0,000 mm 0,0 UV-I 0 W/m 3,9 C 1,8 C 19,3 km/h (3 Bft) 98 %
18.02.2020 22:14 6,8 C 82 % 1018,3 hPa 0,0 l/m 0 min 0 min 0,000 mm 0,0 UV-I 0 W/m 3,9 C 4,6 C 17,7 km/h (3 Bft) 96 %
18.02.2020 22:12 6,8 C 82 % 1018,3 hPa 0,0 l/m 0 min 0 min 0,000 mm 0,0 UV-I 0 W/m 3,9 C 2,3 C 30,6 km/h (5 Bft) 91 %
18.02.2020 22:10 6,7 C 82 % 1018,4 hPa 0,0 l/m 0 min 0 min 0,000 mm 0,0 UV-I 0 W/m 3,8 C 2,3 C 33,8 km/h (5 Bft) 98 %
18.02.2020 22:08 6,7 C 82 % 1018,4 hPa 0,0 l/m 0 min 0 min 0,000 mm 0,0 UV-I 0 W/m 3,8 C 3,2 C 35,4 km/h (5 Bft) 96 %
18.02.2020 22:06 6,7 C 82 % 1018,4 hPa 0,0 l/m 0 min 0 min 0,000 mm 0,0 UV-I 0 W/m 3,8 C 2,4 C 22,5 km/h (4 Bft) 93 %
18.02.2020 22:04 6,7 C 82 % 1018,4 hPa 0,0 l/m 0 min 0 min 0,025 mm 0,0 UV-I 0 W/m 3,8 C 1,8 C 24,1 km/h (4 Bft) 94 %
18.02.2020 22:00 6,6 C 83 % 1018,4 hPa 0,0 l/m 0 min 0 min 0,000 mm 0,0 UV-I 0 W/m 3,9 C 1,5 C 27,4 km/h (4 Bft) 91 %
18.02.2020 21:58 6,6 C 83 % 1018,4 hPa 0,0 l/m 0 min 0 min 0,000 mm 0,0 UV-I 0 W/m 3,9 C 4,4 C 22,5 km/h (4 Bft) 96 %
18.02.2020 21:56 6,6 C 83 % 1018,5 hPa 0,0 l/m 0 min 0 min 0,000 mm 0,0 UV-I 0 W/m 3,9 C 4,3 C 19,3 km/h (3 Bft) 93 %
18.02.2020 21:54 6,6 C 83 % 1018,4 hPa 0,0 l/m 0 min 0 min 0,000 mm 0,0 UV-I 0 W/m 3,9 C 3,6 C 20,9 km/h (4 Bft) 96 %
18.02.2020 21:52 6,6 C 83 % 1018,5 hPa 0,0 l/m 0 min 0 min 0,000 mm 0,0 UV-I 0 W/m 3,9 C 3,1 C 20,9 km/h (4 Bft) 96 %
18.02.2020 21:50 6,6 C 83 % 1018,4 hPa 0,0 l/m 0 min 0 min 0,000 mm 0,0 UV-I 0 W/m 3,9 C 0,8 C 27,4 km/h (4 Bft) 94 %
18.02.2020 21:48 6,5 C 83 % 1018,5 hPa 0,0 l/m 0 min 0 min 0,000 mm 0,0 UV-I 0 W/m 3,8 C 3,7 C 24,1 km/h (4 Bft) 94 %
18.02.2020 21:46 6,5 C 83 % 1018,5 hPa 0,0 l/m 0 min 0 min 0,000 mm 0,0 UV-I 0 W/m 3,8 C 3,2 C 16,1 km/h (3 Bft) 96 %
18.02.2020 21:44 6,5 C 83 % 1018,5 hPa 0,0 l/m 0 min 0 min 0,000 mm 0,0 UV-I 0 W/m 3,8 C 3,3 C 25,7 km/h (4 Bft) 96 %
18.02.2020 21:42 6,5 C 83 % 1018,6 hPa 0,0 l/m 0 min 0 min 0,000 mm 0,0 UV-I 0 W/m 3,8 C 1,1 C 29,0 km/h (5 Bft) 96 %
18.02.2020 21:40 6,5 C 83 % 1018,6 hPa 0,0 l/m 0 min 0 min 0,000 mm 0,0 UV-I 0 W/m 3,8 C 1,2 C 30,6 km/h (5 Bft) 98 %
18.02.2020 21:38 6,4 C 83 % 1018,7 hPa 0,0 l/m 0 min 0 min 0,000 mm 0,0 UV-I 0 W/m 3,7 C 1,7 C 27,4 km/h (4 Bft) 96 %
18.02.2020 21:36 6,5 C 83 % 1018,7 hPa 0,0 l/m 0 min 0 min 0,000 mm 0,0 UV-I 0 W/m 3,8 C 4,7 C 19,3 km/h (3 Bft) 98 %
18.02.2020 21:34 6,5 C 83 % 1018,8 hPa 0,0 l/m 0 min 0 min 0,000 mm 0,0 UV-I 0 W/m 3,8 C 1,3 C 20,9 km/h (4 Bft) 98 %
18.02.2020 21:32 6,5 C 83 % 1018,7 hPa 0,0 l/m 0 min 0 min 0,000 mm 0,0 UV-I 0 W/m 3,8 C 2,7 C 20,9 km/h (4 Bft) 98 %
18.02.2020 21:30 6,5 C 83 % 1018,7 hPa 0,0 l/m 0 min 0 min 0,000 mm 0,0 UV-I 0 W/m 3,8 C 1,5 C 25,7 km/h (4 Bft) 96 %
18.02.2020 21:28 6,5 C 83 % 1018,6 hPa 0,0 l/m 0 min 0 min 0,000 mm 0,0 UV-I 0 W/m 3,8 C -1,4 C 37,0 km/h (5 Bft) 98 %
18.02.2020 21:26 6,4 C 83 % 1018,8 hPa 0,0 l/m 0 min 0 min 0,000 mm 0,0 UV-I 0 W/m 3,7 C 2,2 C 20,9 km/h (4 Bft) 98 %
18.02.2020 21:24 6,4 C 83 % 1018,7 hPa 0,0 l/m 0 min 0 min 0,000 mm 0,0 UV-I 0 W/m 3,7 C 0,3 C 35,4 km/h (5 Bft) 96 %
18.02.2020 21:22 6,4 C 83 % 1018,8 hPa 0,0 l/m 0 min 0 min 0,000 mm 0,0 UV-I 0 W/m 3,7 C 1,3 C 22,5 km/h (4 Bft) 96 %
18.02.2020 21:20 6,4 C 83 % 1018,7 hPa 0,0 l/m 0 min 0 min 0,000 mm 0,0 UV-I 0 W/m 3,7 C 3,0 C 20,9 km/h (4 Bft) 94 %
18.02.2020 21:18 6,4 C 83 % 1018,8 hPa 0,0 l/m 0 min 0 min 0,000 mm 0,0 UV-I 0 W/m 3,7 C 1,2 C 33,8 km/h (5 Bft) 97 %
18.02.2020 21:16 6,5 C 83 % 1018,7 hPa 0,0 l/m 0 min 0 min 0,000 mm 0,0 UV-I 0 W/m 3,8 C 5,7 C 17,7 km/h (3 Bft) 98 %
18.02.2020 21:14 6,5 C 82 % 1018,8 hPa 0,0 l/m 0 min 0 min 0,000 mm 0,0 UV-I 0 W/m 3,7 C 2,7 C 19,3 km/h (3 Bft) 96 %
18.02.2020 21:12 6,5 C 82 % 1018,8 hPa 0,0 l/m 0 min 0 min 0,000 mm 0,0 UV-I 0 W/m 3,7 C 1,8 C 25,7 km/h (4 Bft) 98 %
18.02.2020 21:10 6,5 C 82 % 1018,7 hPa 0,0 l/m 0 min 0 min 0,000 mm 0,0 UV-I 0 W/m 3,7 C 1,0 C 27,4 km/h (4 Bft) 100 %
18.02.2020 21:08 6,4 C 82 % 1018,7 hPa 0,0 l/m 0 min 0 min 0,000 mm 0,0 UV-I 0 W/m 3,6 C 3,7 C 20,9 km/h (4 Bft) 100 %
18.02.2020 21:06 6,4 C 82 % 1018,7 hPa 0,0 l/m 0 min 0 min 0,000 mm 0,0 UV-I 0 W/m 3,6 C 3,6 C 27,4 km/h (4 Bft) 100 %
18.02.2020 21:04 6,4 C 82 % 1018,7 hPa 0,0 l/m 0 min 0 min 0,026 mm 0,0 UV-I 0 W/m 3,6 C 3,7 C 27,4 km/h (4 Bft) 98 %
18.02.2020 21:00 6,5 C 83 % 1018,9 hPa 0,0 l/m 0 min 0 min 0,000 mm 0,0 UV-I 0 W/m 3,8 C 2,6 C 24,1 km/h (4 Bft) 98 %
18.02.2020 20:58 6,5 C 82 % 1018,9 hPa 0,0 l/m 0 min 0 min 0,000 mm 0,0 UV-I 0 W/m 3,7 C 4,4 C 22,5 km/h (4 Bft) 98 %
18.02.2020 20:56 6,5 C 83 % 1018,9 hPa 0,0 l/m 0 min 0 min 0,000 mm 0,0 UV-I 0 W/m 3,8 C 5,3 C 22,5 km/h (4 Bft) 98 %
18.02.2020 20:54 6,5 C 82 % 1018,9 hPa 0,0 l/m 0 min 0 min 0,000 mm 0,0 UV-I 0 W/m 3,7 C 0,7 C 32,2 km/h (5 Bft) 98 %
18.02.2020 20:52 6,5 C 83 % 1018,9 hPa 0,0 l/m 0 min 0 min 0,000 mm 0,0 UV-I 0 W/m 3,8 C 2,3 C 24,1 km/h (4 Bft) 98 %
18.02.2020 20:50 6,5 C 83 % 1018,9 hPa 0,0 l/m 0 min 0 min 0,000 mm 0,0 UV-I 0 W/m 3,8 C 2,2 C 25,7 km/h (4 Bft) 98 %
18.02.2020 20:48 6,5 C 83 % 1018,9 hPa 0,0 l/m 0 min 0 min 0,000 mm 0,0 UV-I 0 W/m 3,8 C 3,7 C 25,7 km/h (4 Bft) 96 %
18.02.2020 20:46 6,6 C 82 % 1019,0 hPa 0,0 l/m 0 min 0 min 0,000 mm 0,0 UV-I 0 W/m 3,8 C 3,6 C 17,7 km/h (3 Bft) 96 %
18.02.2020 20:44 6,6 C 83 % 1019,0 hPa 0,0 l/m 0 min 0 min 0,000 mm 0,0 UV-I 0 W/m 3,9 C -0,3 C 33,8 km/h (5 Bft) 91 %
18.02.2020 20:42 6,6 C 83 % 1019,1 hPa 0,0 l/m 0 min 0 min 0,000 mm 0,0 UV-I 0 W/m 3,9 C 1,2 C 24,1 km/h (4 Bft) 91 %
18.02.2020 20:40 6,6 C 83 % 1019,2 hPa 0,0 l/m 0 min 0 min 0,000 mm 0,0 UV-I 0 W/m 3,9 C 4,0 C 22,5 km/h (4 Bft) 94 %
18.02.2020 20:38 6,6 C 83 % 1019,2 hPa 0,0 l/m 0 min 0 min 0,000 mm 0,0 UV-I 0 W/m 3,9 C 2,2 C 22,5 km/h (4 Bft) 94 %
18.02.2020 20:36 6,5 C 83 % 1019,2 hPa 0,0 l/m 0 min 0 min 0,000 mm 0,0 UV-I 0 W/m 3,8 C 0,1 C 29,0 km/h (5 Bft) 94 %
18.02.2020 20:34 6,5 C 83 % 1019,2 hPa 0,0 l/m 0 min 0 min 0,000 mm 0,0 UV-I 0 W/m 3,8 C 1,5 C 22,5 km/h (4 Bft) 91 %
18.02.2020 20:32 6,5 C 82 % 1019,2 hPa 0,0 l/m 0 min 0 min 0,000 mm 0,0 UV-I 0 W/m 3,7 C 4,7 C 24,1 km/h (4 Bft) 96 %
18.02.2020 20:30 6,5 C 83 % 1019,3 hPa 0,0 l/m 0 min 0 min 0,000 mm 0,0 UV-I 0 W/m 3,8 C 5,1 C 14,5 km/h (3 Bft) 94 %
18.02.2020 20:28 6,5 C 83 % 1019,3 hPa 0,0 l/m 0 min 0 min 0,000 mm 0,0 UV-I 0 W/m 3,8 C 1,3 C 27,4 km/h (4 Bft) 96 %
18.02.2020 20:26 6,5 C 83 % 1019,3 hPa 0,0 l/m 0 min 0 min 0,000 mm 0,0 UV-I 0 W/m 3,8 C 3,2 C 19,3 km/h (3 Bft) 91 %
18.02.2020 20:24 6,6 C 82 % 1019,3 hPa 0,0 l/m 0 min 0 min 0,000 mm 0,0 UV-I 0 W/m 3,8 C 4,8 C 20,9 km/h (4 Bft) 94 %
18.02.2020 20:22 6,6 C 82 % 1019,3 hPa 0,0 l/m 0 min 0 min 0,000 mm 0,0 UV-I 0 W/m 3,8 C 2,9 C 25,7 km/h (4 Bft) 96 %
18.02.2020 20:20 6,6 C 82 % 1019,4 hPa 0,0 l/m 0 min 0 min 0,000 mm 0,0 UV-I 0 W/m 3,8 C 3,8 C 25,7 km/h (4 Bft) 100 %
18.02.2020 20:18 6,6 C 82 % 1019,4 hPa 0,0 l/m 0 min 0 min 0,000 mm 0,0 UV-I 0 W/m 3,8 C 1,1 C 29,0 km/h (5 Bft) 98 %
18.02.2020 20:16 6,6 C 82 % 1019,4 hPa 0,0 l/m 0 min 0 min 0,000 mm 0,0 UV-I 0 W/m 3,8 C 2,4 C 20,9 km/h (4 Bft) 98 %
18.02.2020 20:14 6,6 C 82 % 1019,4 hPa 0,0 l/m 0 min 0 min 0,000 mm 0,0 UV-I 0 W/m 3,8 C 2,2 C 27,4 km/h (4 Bft) 98 %
18.02.2020 20:12 6,6 C 82 % 1019,4 hPa 0,0 l/m 0 min 0 min 0,000 mm 0,0 UV-I 0 W/m 3,8 C 5,8 C 22,5 km/h (4 Bft) 98 %
18.02.2020 20:10 6,7 C 82 % 1019,5 hPa 0,0 l/m 0 min 0 min 0,000 mm 0,0 UV-I 0 W/m 3,8 C 5,3 C 22,5 km/h (4 Bft) 100 %
18.02.2020 20:08 6,7 C 82 % 1019,5 hPa 0,0 l/m 0 min 0 min 0,000 mm 0,0 UV-I 0 W/m 3,8 C 2,3 C 29,0 km/h (5 Bft) 100 %
18.02.2020 20:06 6,7 C 82 % 1019,5 hPa 0,0 l/m 0 min 0 min 0,000 mm 0,0 UV-I 0 W/m 3,8 C 4,5 C 25,7 km/h (4 Bft) 98 %
18.02.2020 20:04 6,7 C 82 % 1019,6 hPa 0,0 l/m 0 min 0 min 0,025 mm 0,0 UV-I 0 W/m 3,8 C 6,7 C 20,9 km/h (4 Bft) 100 %
18.02.2020 20:00 6,6 C 82 % 1019,7 hPa 0,0 l/m 0 min 0 min 0,000 mm 0,0 UV-I 0 W/m 3,8 C 6,6 C 14,5 km/h (3 Bft) 98 %
18.02.2020 19:58 6,6 C 82 % 1019,7 hPa 0,0 l/m 0 min 0 min 0,000 mm 0,0 UV-I 0 W/m 3,8 C 6,6 C 17,7 km/h (3 Bft) 93 %
18.02.2020 19:56 6,6 C 82 % 1019,7 hPa 0,0 l/m 0 min 0 min 0,000 mm 0,0 UV-I 0 W/m 3,8 C 6,6 C 14,5 km/h (3 Bft) 100 %
18.02.2020 19:54 6,6 C 82 % 1019,7 hPa 0,0 l/m 0 min 0 min 0,000 mm 0,0 UV-I 0 W/m 3,8 C 4,5 C 22,5 km/h (4 Bft) 100 %
18.02.2020 19:52 6,6 C 82 % 1019,7 hPa 0,0 l/m 0 min 0 min 0,000 mm 0,0 UV-I 0 W/m 3,8 C 6,6 C 14,5 km/h (3 Bft) 100 %
18.02.2020 19:50 6,6 C 83 % 1019,7 hPa 0,0 l/m 0 min 0 min 0,000 mm 0,0 UV-I 0 W/m 3,9 C 6,6 C 20,9 km/h (4 Bft) 100 %
18.02.2020 19:48 6,6 C 83 % 1019,7 hPa 0,0 l/m 0 min 0 min 0,000 mm 0,0 UV-I 0 W/m 3,9 C 6,6 C 16,1 km/h (3 Bft) 98 %
18.02.2020 19:46 6,6 C 83 % 1019,8 hPa 0,0 l/m 0 min 0 min 0,000 mm 0,0 UV-I 0 W/m 3,9 C 5,2 C 25,7 km/h (4 Bft) 100 %
18.02.2020 19:44 6,6 C 83 % 1019,7 hPa 0,0 l/m 0 min 0 min 0,000 mm 0,0 UV-I 0 W/m 3,9 C 6,6 C 16,1 km/h (3 Bft) 98 %
18.02.2020 19:42 6,6 C 83 % 1019,7 hPa 0,0 l/m 0 min 0 min 0,000 mm 0,0 UV-I 0 W/m 3,9 C 6,3 C 17,7 km/h (3 Bft) 96 %
18.02.2020 19:40 6,6 C 83 % 1019,8 hPa 0,0 l/m 0 min 0 min 0,000 mm 0,0 UV-I 0 W/m 3,9 C 6,6 C 19,3 km/h (3 Bft) 100 %
18.02.2020 19:38 6,6 C 83 % 1019,8 hPa 0,0 l/m 0 min 0 min 0,000 mm 0,0 UV-I 0 W/m 3,9 C 4,1 C 17,7 km/h (3 Bft) 100 %
18.02.2020 19:36 6,5 C 82 % 1019,8 hPa 0,0 l/m 0 min 0 min 0,000 mm 0,0 UV-I 0 W/m 3,7 C 3,4 C 20,9 km/h (4 Bft) 100 %
18.02.2020 19:34 6,5 C 82 % 1019,7 hPa 0,0 l/m 0 min 0 min 0,000 mm 0,0 UV-I 0 W/m 3,7 C 4,4 C 25,7 km/h (4 Bft) 100 %
18.02.2020 19:32 6,4 C 83 % 1019,8 hPa 0,0 l/m 0 min 0 min 0,000 mm 0,0 UV-I 0 W/m 3,7 C 4,2 C 19,3 km/h (3 Bft) 100 %
18.02.2020 19:30 6,4 C 83 % 1019,8 hPa 0,0 l/m 0 min 0 min 0,000 mm 0,0 UV-I 0 W/m 3,7 C 5,5 C 29,0 km/h (5 Bft) 98 %
18.02.2020 19:28 6,4 C 83 % 1019,8 hPa 0,0 l/m 0 min 0 min 0,000 mm 0,0 UV-I 0 W/m 3,7 C 6,4 C 16,1 km/h (3 Bft) 100 %
18.02.2020 19:26 6,4 C 82 % 1019,9 hPa 0,0 l/m 0 min 0 min 0,000 mm 0,0 UV-I 0 W/m 3,6 C 6,4 C 12,9 km/h (3 Bft) 98 %
18.02.2020 19:24 6,4 C 82 % 1019,9 hPa 0,0 l/m 0 min 0 min 0,000 mm 0,0 UV-I 0 W/m 3,6 C 5,6 C 16,1 km/h (3 Bft) 100 %
18.02.2020 19:22 6,4 C 82 % 1019,9 hPa 0,0 l/m 0 min 0 min 0,000 mm 0,0 UV-I 0 W/m 3,6 C 6,4 C 12,9 km/h (3 Bft) 93 %
18.02.2020 19:20 6,4 C 82 % 1019,9 hPa 0,0 l/m 0 min 0 min 0,000 mm 0,0 UV-I 0 W/m 3,6 C 6,4 C 14,5 km/h (3 Bft) 96 %
18.02.2020 19:18 6,4 C 82 % 1019,9 hPa 0,0 l/m 0 min 0 min 0,000 mm 0,0 UV-I 0 W/m 3,6 C 5,2 C 22,5 km/h (4 Bft) 96 %
18.02.2020 19:16 6,4 C 83 % 1019,9 hPa 0,0 l/m 0 min 0 min 0,000 mm 0,0 UV-I 0 W/m 3,7 C 6,4 C 17,7 km/h (3 Bft) 94 %
18.02.2020 19:14 6,4 C 83 % 1019,9 hPa 0,0 l/m 0 min 0 min 0,000 mm 0,0 UV-I 0 W/m 3,7 C 6,4 C 16,1 km/h (3 Bft) 94 %
18.02.2020 19:12 6,4 C 83 % 1019,8 hPa 0,0 l/m 0 min 0 min 0,000 mm 0,0 UV-I 0 W/m 3,7 C 4,3 C 22,5 km/h (4 Bft) 98 %
18.02.2020 19:10 6,4 C 83 % 1019,9 hPa 0,0 l/m 0 min 0 min 0,000 mm 0,0 UV-I 0 W/m 3,7 C 6,4 C 9,7 km/h (2 Bft) 96 %
18.02.2020 19:08 6,4 C 83 % 1019,8 hPa 0,0 l/m 0 min 0 min 0,000 mm 0,0 UV-I 0 W/m 3,7 C 5,7 C 14,5 km/h (3 Bft) 96 %
18.02.2020 19:06 6,4 C 83 % 1019,9 hPa 0,0 l/m 0 min 0 min 0,000 mm 0,0 UV-I 0 W/m 3,7 C 6,3 C 19,3 km/h (3 Bft) 96 %
18.02.2020 19:04 6,4 C 83 % 1019,9 hPa 0,0 l/m 0 min 0 min 0,026 mm 0,0 UV-I 0 W/m 3,7 C 5,5 C 24,1 km/h (4 Bft) 95 %
18.02.2020 19:00 6,3 C 83 % 1019,9 hPa 0,0 l/m 0 min 0 min 0,000 mm 0,0 UV-I 0 W/m 3,6 C 3,8 C 19,3 km/h (3 Bft) 98 %
18.02.2020 18:58 6,3 C 83 % 1019,9 hPa 0,0 l/m 0 min 0 min 0,000 mm 0,0 UV-I 0 W/m 3,6 C 4,8 C 17,7 km/h (3 Bft) 98 %
18.02.2020 18:56 6,3 C 82 % 1019,9 hPa 0,0 l/m 0 min 0 min 0,000 mm 0,0 UV-I 0 W/m 3,5 C 6,3 C 22,5 km/h (4 Bft) 98 %
18.02.2020 18:54 6,3 C 82 % 1020,0 hPa 0,0 l/m 0 min 0 min 0,000 mm 0,0 UV-I 0 W/m 3,5 C 3,6 C 22,5 km/h (4 Bft) 98 %
18.02.2020 18:52 6,3 C 82 % 1020,0 hPa 0,0 l/m 0 min 0 min 0,000 mm 0,0 UV-I 0 W/m 3,5 C 6,3 C 12,9 km/h (3 Bft) 98 %
18.02.2020 18:50 6,4 C 82 % 1020,0 hPa 0,0 l/m 0 min 0 min 0,000 mm 0,0 UV-I 0 W/m 3,6 C 6,4 C 16,1 km/h (3 Bft) 97 %
18.02.2020 18:48 6,4 C 82 % 1020,0 hPa 0,0 l/m 0 min 0 min 0,000 mm 0,0 UV-I 0 W/m 3,6 C 6,4 C 14,5 km/h (3 Bft) 98 %
18.02.2020 18:46 6,4 C 82 % 1019,9 hPa 0,0 l/m 0 min 0 min 0,000 mm 0,0 UV-I 0 W/m 3,6 C 4,0 C 19,3 km/h (3 Bft) 98 %
18.02.2020 18:44 6,4 C 82 % 1020,0 hPa 0,0 l/m 0 min 0 min 0,000 mm 0,0 UV-I 0 W/m 3,6 C 6,4 C 11,3 km/h (2 Bft) 96 %
18.02.2020 18:42 6,4 C 82 % 1020,1 hPa 0,0 l/m 0 min 0 min 0,000 mm 0,0 UV-I 0 W/m 3,6 C 6,0 C 20,9 km/h (4 Bft) 96 %
18.02.2020 18:40 6,5 C 81 % 1020,0 hPa 0,0 l/m 0 min 0 min 0,000 mm 0,0 UV-I 0 W/m 3,5 C 6,5 C 8,0 km/h (2 Bft) 98 %
18.02.2020 18:38 6,5 C 81 % 1020,1 hPa 0,0 l/m 0 min 0 min 0,000 mm 0,0 UV-I 0 W/m 3,5 C 6,1 C 14,5 km/h (3 Bft) 100 %
18.02.2020 18:36 6,6 C 81 % 1020,1 hPa 0,0 l/m 0 min 0 min 0,000 mm 0,0 UV-I 0 W/m 3,6 C 6,4 C 17,7 km/h (3 Bft) 98 %
18.02.2020 18:34 6,6 C 81 % 1020,1 hPa 0,0 l/m 0 min 0 min 0,000 mm 0,0 UV-I 0 W/m 3,6 C 6,6 C 12,9 km/h (3 Bft) 100 %
18.02.2020 18:32 6,6 C 81 % 1020,2 hPa 0,0 l/m 0 min 0 min 0,000 mm 0,0 UV-I 0 W/m 3,6 C 6,6 C 12,9 km/h (3 Bft) 96 %
18.02.2020 18:30 6,7 C 81 % 1020,2 hPa 0,0 l/m 0 min 0 min 0,000 mm 0,0 UV-I 0 W/m 3,7 C 6,7 C 11,3 km/h (2 Bft) 100 %
18.02.2020 18:28 6,7 C 81 % 1020,4 hPa 0,0 l/m 0 min 0 min 0,000 mm 0,0 UV-I 0 W/m 3,7 C 6,3 C 19,3 km/h (3 Bft) 100 %
18.02.2020 18:26 6,7 C 81 % 1020,4 hPa 0,0 l/m 0 min 0 min 0,000 mm 0,0 UV-I 0 W/m 3,7 C 6,7 C 20,9 km/h (4 Bft) 96 %
18.02.2020 18:24 6,7 C 81 % 1020,5 hPa 0,0 l/m 0 min 0 min 0,000 mm 0,0 UV-I 0 W/m 3,7 C 6,7 C 6,4 km/h (2 Bft) 100 %
18.02.2020 18:23 6,8 C 81 % 1020,5 hPa 0,0 l/m 0 min 0 min 0,000 mm 0,0 UV-I 0 W/m 3,8 C 6,8 C 17,7 km/h (3 Bft) 100 %
18.02.2020 18:20 6,8 C 81 % 1020,5 hPa 0,0 l/m 0 min 0 min 0,000 mm 0,0 UV-I 0 W/m 3,8 C 6,8 C 12,9 km/h (3 Bft) 100 %
18.02.2020 18:18 6,8 C 81 % 1020,4 hPa 0,0 l/m 0 min 0 min 0,000 mm 0,0 UV-I 0 W/m 3,8 C 6,8 C 14,5 km/h (3 Bft) 100 %
18.02.2020 18:16 6,8 C 80 % 1020,5 hPa 0,0 l/m 0 min 0 min 0,000 mm 0,0 UV-I 0 W/m 3,6 C 6,8 C 11,3 km/h (2 Bft) 98 %
18.02.2020 18:14 6,9 C 80 % 1020,4 hPa 0,0 l/m 0 min 0 min 0,000 mm 0,0 UV-I 0 W/m 3,7 C 6,9 C 8,0 km/h (2 Bft) 100 %
18.02.2020 18:12 6,9 C 80 % 1020,4 hPa 0,0 l/m 0 min 0 min 0,000 mm 0,0 UV-I 0 W/m 3,7 C 6,9 C 16,1 km/h (3 Bft) 91 %
18.02.2020 18:10 6,9 C 80 % 1020,4 hPa 0,0 l/m 0 min 0 min 0,000 mm 0,0 UV-I 0 W/m 3,7 C 6,9 C 11,3 km/h (2 Bft) 96 %
18.02.2020 18:08 6,9 C 80 % 1020,3 hPa 0,0 l/m 0 min 0 min 0,000 mm 0,0 UV-I 0 W/m 3,7 C 6,9 C 14,5 km/h (3 Bft) 100 %
18.02.2020 18:06 7,0 C 80 % 1020,3 hPa 0,0 l/m 0 min 0 min 0,000 mm 0,0 UV-I 0 W/m 3,8 C 7,0 C 8,0 km/h (2 Bft) 100 %
18.02.2020 18:04 7,0 C 80 % 1020,3 hPa 0,0 l/m 0 min 0 min 0,025 mm 0,0 UV-I 2 W/m 3,8 C 7,0 C 16,1 km/h (3 Bft) 98 %
18.02.2020 18:00 7,0 C 80 % 1020,4 hPa 0,0 l/m 0 min 0 min 0,000 mm 0,0 UV-I 4 W/m 3,8 C 7,0 C 16,1 km/h (3 Bft) 94 %
18.02.2020 17:58 7,0 C 80 % 1020,4 hPa 0,0 l/m 0 min 0 min 0,000 mm 0,0 UV-I 6 W/m 3,8 C 7,0 C 25,7 km/h (4 Bft) 98 %
18.02.2020 17:56 7,1 C 80 % 1020,5 hPa 0,0 l/m 0 min 0 min 0,000 mm 0,0 UV-I 6 W/m 3,9 C 7,1 C 11,3 km/h (2 Bft) 96 %
18.02.2020 17:54 7,1 C 80 % 1020,5 hPa 0,0 l/m 0 min 0 min 0,000 mm 0,0 UV-I 7 W/m 3,9 C 4,8 C 24,1 km/h (4 Bft) 98 %
18.02.2020 17:52 7,1 C 80 % 1020,5 hPa 0,0 l/m 0 min 0 min 0,000 mm 0,0 UV-I 8 W/m 3,9 C 6,8 C 16,1 km/h (3 Bft) 96 %
18.02.2020 17:50 7,1 C 80 % 1020,5 hPa 0,0 l/m 0 min 0 min 0,000 mm 0,0 UV-I 9 W/m 3,9 C 7,1 C 9,7 km/h (2 Bft) 96 %
18.02.2020 17:48 7,1 C 81 % 1020,5 hPa 0,0 l/m 0 min 0 min 0,000 mm 0,0 UV-I 10 W/m 4,1 C 5,5 C 20,9 km/h (4 Bft) 94 %
18.02.2020 17:46 7,0 C 81 % 1020,5 hPa 0,0 l/m 0 min 0 min 0,000 mm 0,0 UV-I 11 W/m 4,0 C 7,0 C 19,3 km/h (3 Bft) 96 %
18.02.2020 17:44 7,0 C 81 % 1020,5 hPa 0,0 l/m 0 min 0 min 0,000 mm 0,0 UV-I 12 W/m 4,0 C 5,5 C 24,1 km/h (4 Bft) 96 %
18.02.2020 17:42 7,0 C 82 % 1020,5 hPa 0,0 l/m 0 min 0 min 0,000 mm 0,0 UV-I 14 W/m 4,1 C 3,2 C 29,0 km/h (5 Bft) 96 %
18.02.2020 17:40 6,9 C 82 % 1020,5 hPa 0,0 l/m 0 min 0 min 0,000 mm 0,0 UV-I 18 W/m 4,0 C 6,9 C 22,5 km/h (4 Bft) 96 %
18.02.2020 17:38 6,9 C 82 % 1020,6 hPa 0,0 l/m 0 min 0 min 0,000 mm 0,0 UV-I 15 W/m 4,0 C 6,3 C 14,5 km/h (3 Bft) 98 %
18.02.2020 17:36 6,9 C 82 % 1020,6 hPa 0,0 l/m 0 min 0 min 0,000 mm 0,0 UV-I 14 W/m 4,0 C 5,8 C 22,5 km/h (4 Bft) 98 %
18.02.2020 17:34 6,9 C 82 % 1020,7 hPa 0,0 l/m 0 min 0 min 0,000 mm 0,0 UV-I 14 W/m 4,0 C 6,9 C 25,7 km/h (4 Bft) 96 %
18.02.2020 17:32 6,9 C 82 % 1020,6 hPa 0,0 l/m 0 min 0 min 0,000 mm 0,0 UV-I 16 W/m 4,0 C 6,8 C 27,4 km/h (4 Bft) 96 %
18.02.2020 17:30 6,9 C 82 % 1020,6 hPa 0,0 l/m 0 min 0 min 0,000 mm 0,0 UV-I 19 W/m 4,0 C 6,9 C 19,3 km/h (3 Bft) 96 %
18.02.2020 17:28 7,0 C 82 % 1020,6 hPa 0,0 l/m 0 min 0 min 0,000 mm 0,0 UV-I 20 W/m 4,1 C 7,0 C 19,3 km/h (3 Bft) 98 %
18.02.2020 17:26 7,0 C 82 % 1020,6 hPa 0,0 l/m 0 min 0 min 0,000 mm 0,0 UV-I 21 W/m 4,1 C 7,0 C 8,0 km/h (2 Bft) 94 %
18.02.2020 17:24 7,1 C 82 % 1020,6 hPa 0,0 l/m 0 min 0 min 0,000 mm 0,0 UV-I 23 W/m 4,2 C 7,1 C 17,7 km/h (3 Bft) 98 %
18.02.2020 17:22 7,1 C 81 % 1020,6 hPa 0,0 l/m 0 min 0 min 0,000 mm 0,0 UV-I 25 W/m 4,1 C 7,1 C 16,1 km/h (3 Bft) 96 %
18.02.2020 17:20 7,1 C 81 % 1020,6 hPa 0,0 l/m 0 min 0 min 0,000 mm 0,0 UV-I 25 W/m 4,1 C 4,7 C 22,5 km/h (4 Bft) 96 %
18.02.2020 17:18 7,1 C 81 % 1020,6 hPa 0,0 l/m 0 min 0 min 0,000 mm 0,0 UV-I 27 W/m 4,1 C 5,4 C 19,3 km/h (3 Bft) 94 %
18.02.2020 17:16 7,2 C 81 % 1020,7 hPa 0,0 l/m 0 min 0 min 0,000 mm 0,0 UV-I 28 W/m 4,2 C 6,0 C 25,7 km/h (4 Bft) 96 %
18.02.2020 17:14 7,2 C 80 % 1020,8 hPa 0,0 l/m 0 min 0 min 0,000 mm 0,0 UV-I 30 W/m 4,0 C 7,2 C 14,5 km/h (3 Bft) 91 %
18.02.2020 17:12 7,2 C 80 % 1020,8 hPa 0,0 l/m 0 min 0 min 0,000 mm 0,0 UV-I 33 W/m 4,0 C 5,2 C 22,5 km/h (4 Bft) 96 %
18.02.2020 17:10 7,3 C 80 % 1020,9 hPa 0,0 l/m 0 min 0 min 0,000 mm 0,0 UV-I 35 W/m 4,1 C 7,3 C 16,1 km/h (3 Bft) 96 %
18.02.2020 17:08 7,3 C 80 % 1020,9 hPa 0,0 l/m 0 min 0 min 0,000 mm 0,0 UV-I 36 W/m 4,1 C 7,3 C 14,5 km/h (3 Bft) 94 %
18.02.2020 17:06 7,4 C 80 % 1020,9 hPa 0,0 l/m 0 min 0 min 0,000 mm 0,0 UV-I 36 W/m 4,2 C 5,3 C 25,7 km/h (4 Bft) 95 %
18.02.2020 17:04 7,4 C 80 % 1020,9 hPa 0,0 l/m 0 min 0 min 0,076 mm 0,0 UV-I 39 W/m 4,2 C 7,4 C 19,3 km/h (3 Bft) 96 %
18.02.2020 17:00 7,6 C 79 % 1021,0 hPa 0,0 l/m 0 min 0 min 0,000 mm 0,3 UV-I 43 W/m 4,2 C 7,6 C 11,3 km/h (2 Bft) 96 %
18.02.2020 16:58 7,6 C 79 % 1021,0 hPa 0,0 l/m 0 min 0 min 0,000 mm 0,7 UV-I 51 W/m 4,2 C 6,0 C 22,5 km/h (4 Bft) 94 %
18.02.2020 16:56 7,7 C 79 % 1021,0 hPa 0,0 l/m 0 min 0 min 0,000 mm 0,7 UV-I 56 W/m 4,3 C 6,8 C 24,1 km/h (4 Bft) 96 %
18.02.2020 16:54 7,8 C 79 % 1021,1 hPa 0,0 l/m 0 min 0 min 0,000 mm 0,7 UV-I 60 W/m 4,4 C 5,0 C 22,5 km/h (4 Bft) 96 %
18.02.2020 16:52 7,8 C 79 % 1021,1 hPa 0,0 l/m 0 min 0 min 0,000 mm 0,7 UV-I 67 W/m 4,4 C 6,3 C 19,3 km/h (3 Bft) 94 %
18.02.2020 16:50 7,9 C 79 % 1021,2 hPa 0,0 l/m 0 min 0 min 0,000 mm 0,7 UV-I 91 W/m 4,5 C 5,0 C 22,5 km/h (4 Bft) 96 %
18.02.2020 16:48 7,9 C 79 % 1021,1 hPa 0,0 l/m 2 min 0 min 0,000 mm 0,7 UV-I 106 W/m 4,5 C 7,9 C 19,3 km/h (3 Bft) 98 %
18.02.2020 16:46 7,9 C 79 % 1021,1 hPa 0,0 l/m 2 min 0 min 0,000 mm 0,7 UV-I 116 W/m 4,5 C 5,5 C 22,5 km/h (4 Bft) 98 %
18.02.2020 16:44 7,9 C 79 % 1021,1 hPa 0,0 l/m 2 min 0 min 0,000 mm 0,7 UV-I 160 W/m 4,5 C 7,9 C 16,1 km/h (3 Bft) 96 %
18.02.2020 16:42 7,9 C 78 % 1021,1 hPa 0,0 l/m 2 min 0 min 0,000 mm 0,7 UV-I 113 W/m 4,3 C 6,6 C 22,5 km/h (4 Bft) 98 %
18.02.2020 16:40 7,9 C 79 % 1021,1 hPa 0,0 l/m 0 min 0 min 0,000 mm 0,7 UV-I 87 W/m 4,5 C 7,9 C 8,0 km/h (2 Bft) 96 %
18.02.2020 16:38 7,9 C 79 % 1021,1 hPa 0,0 l/m 0 min 0 min 0,000 mm 0,7 UV-I 93 W/m 4,5 C 7,9 C 12,9 km/h (3 Bft) 96 %
18.02.2020 16:36 7,9 C 79 % 1021,0 hPa 0,0 l/m 0 min 0 min 0,000 mm 0,7 UV-I 90 W/m 4,5 C 7,9 C 19,3 km/h (3 Bft) 94 %
18.02.2020 16:34 7,9 C 79 % 1021,0 hPa 0,0 l/m 0 min 0 min 0,000 mm 0,8 UV-I 96 W/m 4,5 C 7,1 C 19,3 km/h (3 Bft) 96 %
18.02.2020 16:32 7,9 C 79 % 1021,0 hPa 0,0 l/m 0 min 0 min 0,000 mm 0,8 UV-I 109 W/m 4,5 C 7,9 C 6,4 km/h (2 Bft) 94 %
18.02.2020 16:30 7,9 C 79 % 1021,0 hPa 0,0 l/m 2 min 0 min 0,000 mm 0,8 UV-I 157 W/m 4,5 C 5,9 C 22,5 km/h (4 Bft) 96 %
18.02.2020 16:28 7,8 C 79 % 1021,0 hPa 0,0 l/m 2 min 0 min 0,000 mm 0,8 UV-I 160 W/m 4,4 C 7,5 C 20,9 km/h (4 Bft) 96 %
18.02.2020 16:26 7,8 C 80 % 1021,0 hPa 0,0 l/m 0 min 0 min 0,000 mm 0,8 UV-I 129 W/m 4,6 C 7,8 C 14,5 km/h (3 Bft) 93 %
18.02.2020 16:24 7,8 C 80 % 1021,0 hPa 0,0 l/m 0 min 0 min 0,000 mm 0,8 UV-I 112 W/m 4,6 C 7,8 C 14,5 km/h (3 Bft) 98 %
18.02.2020 16:22 7,8 C 80 % 1020,9 hPa 0,0 l/m 2 min 0 min 0,000 mm 0,9 UV-I 179 W/m 4,6 C 7,8 C 16,1 km/h (3 Bft) 94 %
18.02.2020 16:20 7,8 C 81 % 1021,0 hPa 0,0 l/m 2 min 0 min 0,000 mm 0,9 UV-I 179 W/m 4,7 C 7,8 C 12,9 km/h (3 Bft) 94 %
18.02.2020 16:18 7,8 C 81 % 1021,1 hPa 0,0 l/m 2 min 0 min 0,000 mm 0,9 UV-I 180 W/m 4,7 C 7,8 C 6,4 km/h (2 Bft) 94 %
18.02.2020 16:16 7,7 C 81 % 1021,1 hPa 0,0 l/m 2 min 0 min 0,000 mm 0,9 UV-I 191 W/m 4,7 C 7,7 C 9,7 km/h (2 Bft) 98 %
18.02.2020 16:14 7,7 C 81 % 1021,2 hPa 0,0 l/m 0 min 0 min 0,000 mm 0,9 UV-I 146 W/m 4,7 C 7,7 C 12,9 km/h (3 Bft) 98 %
18.02.2020 16:12 7,7 C 81 % 1021,2 hPa 0,0 l/m 0 min 0 min 0,000 mm 0,9 UV-I 145 W/m 4,7 C 7,7 C 14,5 km/h (3 Bft) 96 %
18.02.2020 16:10 7,7 C 82 % 1021,1 hPa 0,0 l/m 2 min 0 min 0,000 mm 0,9 UV-I 173 W/m 4,8 C 7,7 C 11,3 km/h (2 Bft) 100 %
18.02.2020 16:08 7,6 C 82 % 1021,1 hPa 0,0 l/m 0 min 0 min 0,000 mm 0,9 UV-I 148 W/m 4,7 C 7,6 C 4,8 km/h (1 Bft) 100 %
18.02.2020 16:06 7,6 C 82 % 1021,1 hPa 0,0 l/m 0 min 0 min 0,000 mm 0,9 UV-I 149 W/m 4,7 C 7,6 C 4,8 km/h (1 Bft) 98 %
18.02.2020 16:04 7,6 C 83 % 1021,1 hPa 0,0 l/m 0 min 0 min 0,076 mm 0,9 UV-I 158 W/m 4,9 C 7,6 C 9,7 km/h (2 Bft) 98 %
18.02.2020 16:00 7,6 C 83 % 1021,1 hPa 0,0 l/m 2 min 0 min 0,000 mm 1,0 UV-I 176 W/m 4,9 C 7,6 C 8,0 km/h (2 Bft) 100 %
18.02.2020 15:58 7,6 C 83 % 1021,1 hPa 0,0 l/m 2 min 0 min 0,000 mm 1,0 UV-I 186 W/m 4,9 C 7,6 C 8,0 km/h (2 Bft) 98 %
18.02.2020 15:56 7,6 C 83 % 1021,1 hPa 0,0 l/m 2 min 0 min 0,000 mm 1,0 UV-I 181 W/m 4,9 C 7,6 C 3,2 km/h (1 Bft) 100 %
18.02.2020 15:54 7,6 C 83 % 1021,1 hPa 0,0 l/m 2 min 0 min 0,000 mm 1,0 UV-I 206 W/m 4,9 C 7,6 C 8,0 km/h (2 Bft) 100 %
18.02.2020 15:52 7,5 C 83 % 1021,1 hPa 0,0 l/m 2 min 0 min 0,000 mm 1,0 UV-I 229 W/m 4,8 C 7,5 C 4,8 km/h (1 Bft) 100 %
18.02.2020 15:50 7,4 C 82 % 1021,2 hPa 0,0 l/m 2 min 0 min 0,000 mm 1,1 UV-I 251 W/m 4,5 C 7,4 C 6,4 km/h (2 Bft) 100 %
18.02.2020 15:48 7,4 C 82 % 1021,2 hPa 0,0 l/m 0 min 0 min 0,000 mm 1,0 UV-I 170 W/m 4,5 C 7,4 C 14,5 km/h (3 Bft) 100 %
18.02.2020 15:46 7,5 C 82 % 1021,2 hPa 0,0 l/m 0 min 0 min 0,000 mm 1,0 UV-I 138 W/m 4,6 C 7,5 C 14,5 km/h (3 Bft) 100 %
18.02.2020 15:44 7,5 C 82 % 1021,2 hPa 0,0 l/m 0 min 0 min 0,000 mm 1,0 UV-I 148 W/m 4,6 C 7,5 C 12,9 km/h (3 Bft) 100 %
18.02.2020 15:42 7,5 C 82 % 1021,2 hPa 0,0 l/m 0 min 0 min 0,000 mm 1,0 UV-I 162 W/m 4,6 C 7,5 C 8,0 km/h (2 Bft) 100 %
18.02.2020 15:40 7,5 C 81 % 1021,2 hPa 0,0 l/m 0 min 0 min 0,000 mm 1,0 UV-I 188 W/m 4,5 C 7,5 C 9,7 km/h (2 Bft) 98 %
18.02.2020 15:38 7,6 C 81 % 1021,2 hPa 0,0 l/m 2 min 0 min 0,000 mm 1,0 UV-I 195 W/m 4,6 C 7,0 C 14,5 km/h (3 Bft) 98 %
18.02.2020 15:36 7,6 C 80 % 1021,3 hPa 0,0 l/m 0 min 0 min 0,000 mm 0,9 UV-I 166 W/m 4,4 C 6,3 C 17,7 km/h (3 Bft) 98 %
18.02.2020 15:34 7,7 C 80 % 1021,3 hPa 0,0 l/m 0 min 0 min 0,000 mm 0,8 UV-I 111 W/m 4,5 C 4,0 C 24,1 km/h (4 Bft) 98 %
18.02.2020 15:32 7,8 C 79 % 1021,5 hPa 0,0 l/m 0 min 0 min 0,000 mm 0,8 UV-I 87 W/m 4,4 C 4,8 C 24,1 km/h (4 Bft) 100 %
18.02.2020 15:30 7,8 C 79 % 1021,4 hPa 0,0 l/m 0 min 0 min 0,000 mm 0,8 UV-I 91 W/m 4,4 C 4,0 C 24,1 km/h (4 Bft) 98 %
18.02.2020 15:28 7,9 C 78 % 1021,4 hPa 0,0 l/m 0 min 0 min 0,000 mm 0,8 UV-I 95 W/m 4,3 C 3,2 C 25,7 km/h (4 Bft) 96 %
18.02.2020 15:26 7,9 C 78 % 1021,3 hPa 0,0 l/m 0 min 0 min 0,000 mm 0,9 UV-I 114 W/m 4,3 C 7,0 C 19,3 km/h (3 Bft) 96 %
18.02.2020 15:24 7,9 C 78 % 1021,2 hPa 0,0 l/m 0 min 0 min 0,000 mm 0,9 UV-I 102 W/m 4,3 C 7,4 C 17,7 km/h (3 Bft) 96 %
18.02.2020 15:22 7,9 C 78 % 1021,2 hPa 0,0 l/m 0 min 0 min 0,000 mm 0,9 UV-I 96 W/m 4,3 C 6,6 C 27,4 km/h (4 Bft) 96 %
18.02.2020 15:20 7,9 C 78 % 1021,2 hPa 0,0 l/m 0 min 0 min 0,000 mm 0,8 UV-I 74 W/m 4,3 C 7,8 C 20,9 km/h (4 Bft) 96 %
18.02.2020 15:18 7,9 C 78 % 1021,2 hPa 0,0 l/m 0 min 0 min 0,000 mm 0,8 UV-I 72 W/m 4,3 C 7,9 C 19,3 km/h (3 Bft) 93 %
18.02.2020 15:16 7,9 C 78 % 1021,2 hPa 0,0 l/m 0 min 0 min 0,000 mm 0,8 UV-I 86 W/m 4,3 C 7,9 C 19,3 km/h (3 Bft) 91 %
18.02.2020 15:14 7,9 C 78 % 1021,2 hPa 0,0 l/m 0 min 0 min 0,000 mm 1,0 UV-I 119 W/m 4,3 C 7,9 C 16,1 km/h (3 Bft) 96 %
18.02.2020 15:12 7,8 C 79 % 1021,3 hPa 0,0 l/m 0 min 0 min 0,000 mm 1,0 UV-I 147 W/m 4,4 C 7,8 C 19,3 km/h (3 Bft) 96 %
18.02.2020 15:10 7,8 C 79 % 1021,2 hPa 0,0 l/m 0 min 0 min 0,000 mm 1,1 UV-I 179 W/m 4,4 C 7,4 C 16,1 km/h (3 Bft) 96 %
18.02.2020 15:08 7,7 C 79 % 1021,2 hPa 0,0 l/m 0 min 0 min 0,000 mm 1,2 UV-I 198 W/m 4,3 C 7,7 C 19,3 km/h (3 Bft) 96 %
18.02.2020 15:06 7,7 C 79 % 1021,3 hPa 0,0 l/m 0 min 0 min 0,000 mm 1,2 UV-I 190 W/m 4,3 C 7,7 C 11,3 km/h (2 Bft) 96 %
18.02.2020 15:04 7,7 C 79 % 1021,3 hPa 0,0 l/m 0 min 0 min 0,077 mm 1,0 UV-I 140 W/m 4,3 C 7,7 C 12,9 km/h (3 Bft) 96 %
18.02.2020 15:00 7,6 C 79 % 1021,3 hPa 0,0 l/m 0 min 0 min 0,000 mm 1,0 UV-I 108 W/m 4,2 C 7,6 C 9,7 km/h (2 Bft) 94 %
18.02.2020 14:58 7,6 C 80 % 1021,3 hPa 0,0 l/m 0 min 0 min 0,000 mm 0,9 UV-I 96 W/m 4,4 C 7,6 C 19,3 km/h (3 Bft) 96 %
18.02.2020 14:56 7,6 C 80 % 1021,3 hPa 0,0 l/m 0 min 0 min 0,000 mm 0,8 UV-I 86 W/m 4,4 C 7,6 C 25,7 km/h (4 Bft) 96 %
18.02.2020 14:54 7,6 C 80 % 1021,3 hPa 0,0 l/m 0 min 0 min 0,000 mm 0,9 UV-I 98 W/m 4,4 C 7,6 C 12,9 km/h (3 Bft) 98 %
18.02.2020 14:52 7,6 C 80 % 1021,4 hPa 0,0 l/m 0 min 0 min 0,000 mm 0,9 UV-I 95 W/m 4,4 C 7,6 C 19,3 km/h (3 Bft) 93 %
18.02.2020 14:50 7,6 C 80 % 1021,4 hPa 0,0 l/m 0 min 0 min 0,000 mm 1,0 UV-I 108 W/m 4,4 C 5,3 C 20,9 km/h (4 Bft) 98 %
18.02.2020 14:48 7,5 C 80 % 1021,4 hPa 0,0 l/m 0 min 0 min 0,000 mm 0,9 UV-I 109 W/m 4,3 C 4,0 C 22,5 km/h (4 Bft) 100 %
18.02.2020 14:46 7,5 C 80 % 1021,4 hPa 0,0 l/m 0 min 0 min 0,000 mm 0,9 UV-I 102 W/m 4,3 C 7,5 C 14,5 km/h (3 Bft) 100 %
18.02.2020 14:44 7,5 C 80 % 1021,5 hPa 0,0 l/m 0 min 0 min 0,000 mm 0,9 UV-I 98 W/m 4,3 C 3,8 C 22,5 km/h (4 Bft) 100 %
18.02.2020 14:42 7,5 C 80 % 1021,5 hPa 0,0 l/m 0 min 0 min 0,000 mm 1,0 UV-I 97 W/m 4,3 C 3,3 C 22,5 km/h (4 Bft) 98 %
18.02.2020 14:40 7,5 C 80 % 1021,6 hPa 0,0 l/m 0 min 0 min 0,000 mm 1,0 UV-I 101 W/m 4,3 C 7,5 C 16,1 km/h (3 Bft) 98 %
18.02.2020 14:38 7,5 C 81 % 1021,6 hPa 0,0 l/m 0 min 0 min 0,000 mm 0,9 UV-I 101 W/m 4,5 C 5,6 C 25,7 km/h (4 Bft) 100 %
18.02.2020 14:36 7,5 C 81 % 1021,6 hPa 0,0 l/m 0 min 0 min 0,000 mm 1,0 UV-I 114 W/m 4,5 C 7,5 C 9,7 km/h (2 Bft) 100 %
18.02.2020 14:34 7,4 C 81 % 1021,6 hPa 0,0 l/m 0 min 0 min 0,000 mm 1,1 UV-I 145 W/m 4,4 C 5,4 C 25,7 km/h (4 Bft) 100 %
18.02.2020 14:32 7,4 C 81 % 1021,6 hPa 0,0 l/m 0 min 0 min 0,000 mm 1,1 UV-I 138 W/m 4,4 C 7,4 C 17,7 km/h (3 Bft) 100 %
18.02.2020 14:30 7,4 C 81 % 1021,7 hPa 0,0 l/m 0 min 0 min 0,000 mm 1,1 UV-I 130 W/m 4,4 C 4,9 C 24,1 km/h (4 Bft) 96 %
18.02.2020 14:28 7,4 C 82 % 1021,6 hPa 0,0 l/m 0 min 0 min 0,000 mm 1,1 UV-I 111 W/m 4,5 C 6,0 C 17,7 km/h (3 Bft) 98 %
18.02.2020 14:26 7,4 C 82 % 1021,7 hPa 0,0 l/m 0 min 0 min 0,000 mm 1,2 UV-I 130 W/m 4,5 C 7,4 C 14,5 km/h (3 Bft) 98 %
18.02.2020 14:24 7,4 C 82 % 1021,7 hPa 0,0 l/m 0 min 0 min 0,000 mm 1,1 UV-I 108 W/m 4,5 C 6,0 C 19,3 km/h (3 Bft) 100 %
18.02.2020 14:22 7,4 C 82 % 1021,7 hPa 0,0 l/m 0 min 0 min 0,000 mm 1,3 UV-I 147 W/m 4,5 C 7,4 C 16,1 km/h (3 Bft) 94 %
18.02.2020 14:20 7,4 C 82 % 1021,6 hPa 0,0 l/m 0 min 0 min 0,000 mm 1,4 UV-I 173 W/m 4,5 C 3,5 C 20,9 km/h (4 Bft) 100 %
18.02.2020 14:18 7,3 C 82 % 1021,6 hPa 0,0 l/m 0 min 0 min 0,000 mm 1,3 UV-I 163 W/m 4,4 C 5,4 C 19,3 km/h (3 Bft) 100 %
18.02.2020 14:16 7,3 C 82 % 1021,6 hPa 0,0 l/m 0 min 0 min 0,000 mm 1,3 UV-I 172 W/m 4,4 C 7,3 C 14,5 km/h (3 Bft) 100 %
18.02.2020 14:14 7,2 C 82 % 1021,6 hPa 0,0 l/m 0 min 0 min 0,000 mm 1,3 UV-I 200 W/m 4,3 C 7,2 C 12,9 km/h (3 Bft) 100 %
18.02.2020 14:12 7,2 C 82 % 1021,6 hPa 0,0 l/m 0 min 0 min 0,000 mm 1,3 UV-I 197 W/m 4,3 C 3,3 C 20,9 km/h (4 Bft) 98 %
18.02.2020 14:10 7,2 C 83 % 1021,6 hPa 0,0 l/m 0 min 0 min 0,000 mm 1,3 UV-I 186 W/m 4,5 C 6,6 C 16,1 km/h (3 Bft) 100 %
18.02.2020 14:08 7,2 C 83 % 1021,6 hPa 0,0 l/m 0 min 0 min 0,000 mm 1,3 UV-I 189 W/m 4,5 C 5,0 C 24,1 km/h (4 Bft) 100 %
18.02.2020 14:06 7,2 C 83 % 1021,6 hPa 0,0 l/m 0 min 0 min 0,000 mm 1,3 UV-I 178 W/m 4,5 C 7,0 C 16,1 km/h (3 Bft) 100 %
18.02.2020 14:04 7,2 C 82 % 1021,7 hPa 0,0 l/m 0 min 0 min 0,101 mm 1,4 UV-I 176 W/m 4,3 C 4,4 C 22,5 km/h (4 Bft) 100 %
18.02.2020 14:00 7,3 C 82 % 1021,7 hPa 0,0 l/m 0 min 0 min 0,000 mm 1,5 UV-I 187 W/m 4,4 C 7,3 C 14,5 km/h (3 Bft) 100 %
18.02.2020 13:58 7,3 C 82 % 1021,8 hPa 0,0 l/m 0 min 0 min 0,000 mm 1,5 UV-I 183 W/m 4,4 C 7,3 C 16,1 km/h (3 Bft) 100 %
18.02.2020 13:56 7,4 C 81 % 1021,8 hPa 0,0 l/m 0 min 2 min 0,000 mm 1,5 UV-I 182 W/m 4,4 C 3,4 C 27,4 km/h (4 Bft) 100 %
18.02.2020 13:54 7,4 C 81 % 1021,8 hPa 0,0 l/m 0 min 2 min 0,000 mm 1,6 UV-I 187 W/m 4,4 C 7,4 C 17,7 km/h (3 Bft) 100 %
18.02.2020 13:52 7,4 C 81 % 1021,9 hPa 0,0 l/m 0 min 2 min 0,000 mm 1,7 UV-I 226 W/m 4,4 C 2,8 C 24,1 km/h (4 Bft) 100 %
18.02.2020 13:50 7,5 C 80 % 1021,7 hPa 0,0 l/m 0 min 2 min 0,000 mm 1,7 UV-I 208 W/m 4,3 C 3,9 C 22,5 km/h (4 Bft) 98 %
18.02.2020 13:48 7,6 C 80 % 1021,6 hPa 0,0 l/m 0 min 2 min 0,000 mm 1,6 UV-I 196 W/m 4,4 C 4,7 C 22,5 km/h (4 Bft) 98 %
18.02.2020 13:46 7,6 C 80 % 1021,9 hPa 0,0 l/m 0 min 0 min 0,000 mm 1,4 UV-I 129 W/m 4,4 C 2,3 C 29,0 km/h (5 Bft) 93 %
18.02.2020 13:44 7,7 C 79 % 1021,8 hPa 0,0 l/m 0 min 0 min 0,000 mm 1,5 UV-I 95 W/m 4,3 C 6,2 C 27,4 km/h (4 Bft) 98 %
18.02.2020 13:42 7,7 C 80 % 1021,8 hPa 0,0 l/m 0 min 0 min 0,000 mm 1,5 UV-I 194 W/m 4,5 C 7,7 C 14,5 km/h (3 Bft) 96 %
18.02.2020 13:40 7,6 C 80 % 1021,8 hPa 0,0 l/m 0 min 0 min 0,000 mm 1,6 UV-I 165 W/m 4,4 C 7,6 C 14,5 km/h (3 Bft) 93 %
18.02.2020 13:38 7,6 C 80 % 1021,9 hPa 0,0 l/m 0 min 0 min 0,000 mm 1,4 UV-I 165 W/m 4,4 C 7,6 C 19,3 km/h (3 Bft) 96 %
18.02.2020 13:36 7,5 C 80 % 1021,8 hPa 0,0 l/m 0 min 0 min 0,000 mm 1,5 UV-I 209 W/m 4,3 C 7,5 C 9,7 km/h (2 Bft) 96 %
18.02.2020 13:34 7,5 C 80 % 1021,8 hPa 0,0 l/m 0 min 0 min 0,000 mm 1,2 UV-I 171 W/m 4,3 C 7,5 C 20,9 km/h (4 Bft) 96 %
18.02.2020 13:32 7,5 C 79 % 1021,9 hPa 0,0 l/m 0 min 0 min 0,000 mm 1,2 UV-I 156 W/m 4,1 C 4,0 C 24,1 km/h (4 Bft) 96 %
18.02.2020 13:30 7,5 C 80 % 1021,9 hPa 0,0 l/m 0 min 0 min 0,000 mm 1,1 UV-I 139 W/m 4,3 C 5,0 C 19,3 km/h (3 Bft) 94 %
18.02.2020 13:28 7,5 C 80 % 1021,9 hPa 0,0 l/m 0 min 0 min 0,000 mm 0,9 UV-I 101 W/m 4,3 C 7,5 C 6,4 km/h (2 Bft) 96 %
18.02.2020 13:26 7,5 C 80 % 1022,0 hPa 0,0 l/m 0 min 0 min 0,000 mm 1,0 UV-I 116 W/m 4,3 C 6,2 C 20,9 km/h (4 Bft) 94 %
18.02.2020 13:24 7,4 C 80 % 1022,0 hPa 0,0 l/m 0 min 0 min 0,000 mm 1,1 UV-I 146 W/m 4,2 C 7,4 C 9,7 km/h (2 Bft) 96 %
18.02.2020 13:22 7,4 C 81 % 1022,0 hPa 0,0 l/m 0 min 0 min 0,000 mm 1,2 UV-I 135 W/m 4,4 C 6,0 C 19,3 km/h (3 Bft) 98 %
18.02.2020 13:20 7,4 C 81 % 1022,0 hPa 0,0 l/m 0 min 0 min 0,000 mm 1,3 UV-I 168 W/m 4,4 C 7,4 C 16,1 km/h (3 Bft) 98 %
18.02.2020 13:18 7,3 C 81 % 1022,1 hPa 0,0 l/m 0 min 0 min 0,000 mm 1,4 UV-I 212 W/m 4,3 C 5,4 C 22,5 km/h (4 Bft) 98 %
18.02.2020 13:16 7,3 C 81 % 1022,0 hPa 0,0 l/m 0 min 0 min 0,000 mm 1,4 UV-I 212 W/m 4,3 C 4,7 C 20,9 km/h (4 Bft) 98 %
18.02.2020 13:14 7,2 C 82 % 1022,1 hPa 0,0 l/m 0 min 0 min 0,000 mm 1,5 UV-I 242 W/m 4,3 C 4,2 C 24,1 km/h (4 Bft) 98 %
18.02.2020 13:12 7,2 C 82 % 1021,9 hPa 0,0 l/m 0 min 0 min 0,000 mm 1,5 UV-I 259 W/m 4,3 C 6,5 C 24,1 km/h (4 Bft) 96 %
18.02.2020 13:10 7,2 C 82 % 1022,1 hPa 0,0 l/m 0 min 0 min 0,000 mm 1,4 UV-I 216 W/m 4,3 C 7,2 C 17,7 km/h (3 Bft) 96 %
18.02.2020 13:08 7,2 C 82 % 1022,2 hPa 0,0 l/m 0 min 0 min 0,000 mm 1,3 UV-I 166 W/m 4,3 C 7,2 C 14,5 km/h (3 Bft) 98 %
18.02.2020 13:06 7,2 C 82 % 1022,2 hPa 0,0 l/m 0 min 0 min 0,000 mm 1,4 UV-I 180 W/m 4,3 C 7,1 C 22,5 km/h (4 Bft) 95 %
18.02.2020 13:04 7,1 C 82 % 1022,2 hPa 0,0 l/m 0 min 0 min 0,102 mm 1,3 UV-I 159 W/m 4,2 C 7,1 C 11,3 km/h (2 Bft) 100 %
18.02.2020 13:00 7,1 C 82 % 1022,3 hPa 0,0 l/m 0 min 0 min 0,000 mm 1,4 UV-I 163 W/m 4,2 C 6,8 C 14,5 km/h (3 Bft) 100 %
_ Min-Zeit 07:18 12:54 02:58 - - - - - - 08:38 06:24 15:56 00:04
Minimum _ 3,8 C 77 % 1012,0 hPa - - - - - - 2,6 C -7,3 C 3,2 km/h (1 Bft) 70 %
_ Max-Zeit 15:14 04:30 13:00 03:50 15:38 13:48 12:03 12:30 12:46 15:54 15:14 06:23 13:00
Maximum _ 7,9 C 94 % 1022,3 hPa 0,4 l/m 2 min 2 min 0,153 mm 2,1 UV-I 586 W/m 4,9 C 7,9 C 48,3 km/h
NW (6 Bft)
100 %
Durchschnitt _ 6,1 C 86 % 1017,9 hPa #4,2 l/m #2:17 h #6:07 h #0,559 mm 1,3 UV-I 221 W/m 3,9 C 2,6 C 23,0 km/h (4 Bft) 97 %